LOT37 EPWA-KSFO
Flight info
| Callsign | LOT37 |
|---|---|
| Flight time | 10h 45m |
| Altitude | 38000 |
| Route | LOLSI DCT DIBLO DCT INDIG DCT BINKA DCT KOSEB DCT RASVI DCT GUNPA/M083F380 DCT 64N010W 66N020W 67N030W 67N040W 66N050W DCT AVPUT/N0485F380 DCT DUTUM DCT 62N080W 59N090W DCT DUXIP DCT YOUNG DCT KU21Q DCT KU03M DCT REO DCT HOLLR DCT LEGGS BDEGA4 |
| Aircraft | B772/H-SDE2E3FGHIJ5LORVWXY/LB1D1 |
Departure
| Time | 2026-05-06 16:42 |
|---|---|
| Airport | Warsaw Chopin Airport (EPWA) |
Arrival
| Time | 2026-05-07 03:27 |
|---|---|
| Airport | San Francisco International Airport (KSFO) |
| Time | Latitude | Longitude | Altitude | Speed | Heading |
|---|---|---|---|---|---|
| 2026-05-06 16:01 | 52.17271 | 20.96896 | 343 ft | 0 kts | 62° |
| 2026-05-06 16:11 | 52.17271 | 20.96895 | 343 ft | 0 kts | 62° |
| 2026-05-06 16:29 | 52.17270 | 20.96894 | 343 ft | 2 kts | 61° |
| 2026-05-06 16:29 | 52.17258 | 20.96856 | 354 ft | 4 kts | 62° |
| 2026-05-06 16:30 | 52.17246 | 20.96817 | 352 ft | 4 kts | 68° |
| 2026-05-06 16:30 | 52.17241 | 20.96795 | 354 ft | 2 kts | 85° |
| 2026-05-06 16:30 | 52.17244 | 20.96770 | 354 ft | 2 kts | 131° |
| 2026-05-06 16:30 | 52.17252 | 20.96758 | 354 ft | 2 kts | 147° |
| 2026-05-06 16:31 | 52.17261 | 20.96749 | 354 ft | 2 kts | 151° |
| 2026-05-06 16:31 | 52.17268 | 20.96743 | 354 ft | 0 kts | 152° |
| 2026-05-06 16:34 | 52.17263 | 20.96746 | 354 ft | 3 kts | 152° |
| 2026-05-06 16:34 | 52.17229 | 20.96776 | 354 ft | 7 kts | 152° |
| 2026-05-06 16:35 | 52.17184 | 20.96791 | 348 ft | 7 kts | 198° |
| 2026-05-06 16:35 | 52.17148 | 20.96736 | 347 ft | 7 kts | 237° |
| 2026-05-06 16:35 | 52.17111 | 20.96677 | 347 ft | 8 kts | 200° |
| 2026-05-06 16:35 | 52.17045 | 20.96700 | 353 ft | 13 kts | 154° |
| 2026-05-06 16:36 | 52.16962 | 20.96771 | 353 ft | 14 kts | 152° |
| 2026-05-06 16:36 | 52.16877 | 20.96844 | 354 ft | 14 kts | 152° |
| 2026-05-06 16:36 | 52.16792 | 20.96918 | 354 ft | 14 kts | 151° |
| 2026-05-06 16:36 | 52.16685 | 20.97013 | 352 ft | 22 kts | 151° |
| 2026-05-06 16:37 | 52.16551 | 20.97131 | 351 ft | 22 kts | 151° |
| 2026-05-06 16:37 | 52.16427 | 20.97238 | 350 ft | 18 kts | 153° |
| 2026-05-06 16:37 | 52.16315 | 20.97335 | 344 ft | 18 kts | 152° |
| 2026-05-06 16:37 | 52.16205 | 20.97432 | 349 ft | 18 kts | 152° |
| 2026-05-06 16:38 | 52.16094 | 20.97530 | 352 ft | 18 kts | 152° |
| 2026-05-06 16:38 | 52.15983 | 20.97627 | 351 ft | 18 kts | 152° |
| 2026-05-06 16:38 | 52.15872 | 20.97724 | 354 ft | 18 kts | 152° |
| 2026-05-06 16:38 | 52.15761 | 20.97820 | 354 ft | 18 kts | 152° |
| 2026-05-06 16:39 | 52.15662 | 20.97907 | 351 ft | 10 kts | 152° |
| 2026-05-06 16:39 | 52.15642 | 20.98006 | 354 ft | 11 kts | 63° |
| 2026-05-06 16:39 | 52.15705 | 20.98080 | 352 ft | 11 kts | 25° |
| 2026-05-06 16:39 | 52.15778 | 20.98136 | 350 ft | 14 kts | 25° |
| 2026-05-06 16:40 | 52.15872 | 20.98206 | 351 ft | 15 kts | 24° |
| 2026-05-06 16:40 | 52.15967 | 20.98275 | 351 ft | 15 kts | 24° |
| 2026-05-06 16:40 | 52.16062 | 20.98345 | 350 ft | 15 kts | 24° |
| 2026-05-06 16:40 | 52.16104 | 20.98354 | 351 ft | 5 kts | 335° |
| 2026-05-06 16:41 | 52.16127 | 20.98303 | 352 ft | 6 kts | 295° |
| 2026-05-06 16:41 | 52.16166 | 20.98167 | 351 ft | 35 kts | 295° |
| 2026-05-06 16:41 | 52.16390 | 20.97365 | 350 ft | 119 kts | 295° |
| 2026-05-06 16:41 | 52.16840 | 20.95761 | 386 ft | 187 kts | 294° |
| 2026-05-06 16:42 | 52.17406 | 20.93744 | 1124 ft | 207 kts | 292° |
| 2026-05-06 16:42 | 52.18032 | 20.91520 | 1801 ft | 222 kts | 289° |
| 2026-05-06 16:42 | 52.18309 | 20.89119 | 2380 ft | 209 kts | 260° |
| 2026-05-06 16:42 | 52.18139 | 20.86791 | 3040 ft | 207 kts | 261° |
| 2026-05-06 16:43 | 52.18074 | 20.84442 | 3620 ft | 209 kts | 266° |
| 2026-05-06 16:43 | 52.18075 | 20.82032 | 4110 ft | 217 kts | 266° |
| 2026-05-06 16:43 | 52.18085 | 20.79531 | 4567 ft | 224 kts | 267° |
| 2026-05-06 16:43 | 52.18093 | 20.76972 | 4970 ft | 230 kts | 267° |
| 2026-05-06 16:44 | 52.18097 | 20.74274 | 5178 ft | 247 kts | 267° |
| 2026-05-06 16:44 | 52.18099 | 20.71390 | 5527 ft | 263 kts | 267° |
| 2026-05-06 16:44 | 52.18098 | 20.68306 | 5855 ft | 282 kts | 267° |
| 2026-05-06 16:44 | 52.18096 | 20.65061 | 6160 ft | 299 kts | 267° |
| 2026-05-06 16:45 | 52.18091 | 20.61573 | 6455 ft | 316 kts | 267° |
| 2026-05-06 16:45 | 52.18084 | 20.57843 | 6764 ft | 334 kts | 268° |
| 2026-05-06 16:45 | 52.18076 | 20.54071 | 7047 ft | 339 kts | 267° |
| 2026-05-06 16:45 | 52.18067 | 20.50227 | 7304 ft | 340 kts | 268° |
| 2026-05-06 16:46 | 52.18057 | 20.46326 | 7576 ft | 341 kts | 267° |
| 2026-05-06 16:46 | 52.18045 | 20.42507 | 7848 ft | 342 kts | 267° |
| 2026-05-06 16:46 | 52.18030 | 20.38623 | 8174 ft | 344 kts | 267° |
| 2026-05-06 16:46 | 52.18012 | 20.34698 | 8503 ft | 349 kts | 267° |
| 2026-05-06 16:47 | 52.17993 | 20.30739 | 8832 ft | 350 kts | 267° |
| 2026-05-06 16:47 | 52.17972 | 20.26771 | 9160 ft | 351 kts | 267° |
| 2026-05-06 16:47 | 52.17951 | 20.22779 | 9505 ft | 353 kts | 267° |
| 2026-05-06 16:47 | 52.17929 | 20.18763 | 9831 ft | 355 kts | 267° |
| 2026-05-06 16:48 | 52.17905 | 20.14739 | 10143 ft | 356 kts | 266° |
| 2026-05-06 16:48 | 52.17878 | 20.10702 | 10451 ft | 357 kts | 266° |
| 2026-05-06 16:48 | 52.17851 | 20.06646 | 10774 ft | 358 kts | 266° |
| 2026-05-06 16:48 | 52.17822 | 20.02580 | 11093 ft | 359 kts | 266° |
| 2026-05-06 16:49 | 52.17792 | 19.98506 | 11419 ft | 360 kts | 266° |
| 2026-05-06 16:49 | 52.17761 | 19.94418 | 11748 ft | 361 kts | 266° |
| 2026-05-06 16:49 | 52.17727 | 19.90321 | 12092 ft | 362 kts | 266° |
| 2026-05-06 16:49 | 52.17638 | 19.86227 | 12416 ft | 362 kts | 262° |
| 2026-05-06 16:50 | 52.17309 | 19.82171 | 12762 ft | 362 kts | 259° |
| 2026-05-06 16:50 | 52.16939 | 19.78109 | 13104 ft | 363 kts | 259° |
| 2026-05-06 16:50 | 52.16569 | 19.74033 | 13451 ft | 365 kts | 259° |
| 2026-05-06 16:50 | 52.16200 | 19.69938 | 13758 ft | 366 kts | 259° |
| 2026-05-06 16:51 | 52.15831 | 19.65819 | 14078 ft | 368 kts | 259° |
| 2026-05-06 16:51 | 52.15461 | 19.61686 | 14391 ft | 370 kts | 259° |
| 2026-05-06 16:51 | 52.15089 | 19.57521 | 14712 ft | 373 kts | 260° |
| 2026-05-06 16:51 | 52.14713 | 19.53332 | 15021 ft | 375 kts | 260° |
| 2026-05-06 16:52 | 52.14335 | 19.49126 | 15353 ft | 377 kts | 260° |
| 2026-05-06 16:52 | 52.13953 | 19.44890 | 15675 ft | 379 kts | 260° |
| 2026-05-06 16:52 | 52.13568 | 19.40631 | 16012 ft | 381 kts | 260° |
| 2026-05-06 16:52 | 52.13178 | 19.36353 | 16340 ft | 383 kts | 260° |
| 2026-05-06 16:53 | 52.12783 | 19.32045 | 16679 ft | 386 kts | 260° |
| 2026-05-06 16:53 | 52.12379 | 19.27721 | 17022 ft | 388 kts | 260° |
| 2026-05-06 16:53 | 52.11969 | 19.23368 | 17374 ft | 390 kts | 260° |
| 2026-05-06 16:53 | 52.11555 | 19.18990 | 17706 ft | 393 kts | 260° |
| 2026-05-06 16:54 | 52.11137 | 19.14590 | 18051 ft | 395 kts | 260° |
| 2026-05-06 16:54 | 52.10717 | 19.10169 | 18356 ft | 396 kts | 260° |
| 2026-05-06 16:54 | 52.10293 | 19.05730 | 18664 ft | 398 kts | 260° |
| 2026-05-06 16:54 | 52.09866 | 19.01275 | 18971 ft | 399 kts | 260° |
| 2026-05-06 16:55 | 52.09437 | 18.96810 | 19286 ft | 401 kts | 260° |
| 2026-05-06 16:55 | 52.09005 | 18.92328 | 19599 ft | 402 kts | 260° |
| 2026-05-06 16:55 | 52.08569 | 18.87830 | 19911 ft | 403 kts | 260° |
| 2026-05-06 16:55 | 52.08130 | 18.83317 | 20239 ft | 405 kts | 260° |
| 2026-05-06 16:56 | 52.07693 | 18.78837 | 20566 ft | 408 kts | 260° |
| 2026-05-06 16:56 | 52.07245 | 18.74276 | 20896 ft | 410 kts | 260° |
| 2026-05-06 16:56 | 52.06793 | 18.69686 | 21235 ft | 413 kts | 260° |
| 2026-05-06 16:56 | 52.06335 | 18.65061 | 21574 ft | 415 kts | 260° |
| 2026-05-06 16:57 | 52.05874 | 18.60420 | 21930 ft | 418 kts | 260° |
| 2026-05-06 16:57 | 52.05408 | 18.55751 | 22268 ft | 420 kts | 260° |
| 2026-05-06 16:57 | 52.04938 | 18.51053 | 22617 ft | 422 kts | 260° |
| 2026-05-06 16:57 | 52.04462 | 18.46326 | 22969 ft | 424 kts | 260° |
| 2026-05-06 16:58 | 52.03984 | 18.41585 | 23322 ft | 426 kts | 260° |
| 2026-05-06 16:58 | 52.03502 | 18.36832 | 23632 ft | 428 kts | 260° |
| 2026-05-06 16:58 | 52.03015 | 18.32050 | 23927 ft | 430 kts | 260° |
| 2026-05-06 16:58 | 52.02525 | 18.27255 | 24235 ft | 431 kts | 260° |
| 2026-05-06 16:59 | 52.02031 | 18.22446 | 24547 ft | 433 kts | 259° |
| 2026-05-06 16:59 | 52.01535 | 18.17627 | 24855 ft | 434 kts | 259° |
| 2026-05-06 16:59 | 52.01035 | 18.12790 | 25171 ft | 435 kts | 259° |
| 2026-05-06 16:59 | 52.00533 | 18.07940 | 25491 ft | 434 kts | 261° |
| 2026-05-06 17:00 | 52.00434 | 18.03053 | 25773 ft | 437 kts | 276° |
| 2026-05-06 17:00 | 52.01198 | 17.98260 | 26123 ft | 442 kts | 289° |
| 2026-05-06 17:00 | 52.02632 | 17.93826 | 26442 ft | 448 kts | 303° |
| 2026-05-06 17:00 | 52.04572 | 17.89869 | 26803 ft | 448 kts | 307° |
| 2026-05-06 17:01 | 52.06585 | 17.85990 | 27134 ft | 450 kts | 307° |
| 2026-05-06 17:01 | 52.08617 | 17.82111 | 27473 ft | 451 kts | 307° |
| 2026-05-06 17:01 | 52.10647 | 17.78214 | 27827 ft | 453 kts | 307° |
| 2026-05-06 17:01 | 52.12671 | 17.74289 | 28174 ft | 453 kts | 307° |
| 2026-05-06 17:02 | 52.14688 | 17.70334 | 28526 ft | 454 kts | 306° |
| 2026-05-06 17:02 | 52.16697 | 17.66362 | 28895 ft | 455 kts | 306° |
| 2026-05-06 17:02 | 52.18701 | 17.62378 | 29257 ft | 455 kts | 306° |
| 2026-05-06 17:02 | 52.20704 | 17.58380 | 29628 ft | 455 kts | 306° |
| 2026-05-06 17:03 | 52.22678 | 17.54429 | 29975 ft | 455 kts | 306° |
| 2026-05-06 17:03 | 52.24676 | 17.50424 | 30291 ft | 455 kts | 306° |
| 2026-05-06 17:03 | 52.26700 | 17.46363 | 30620 ft | 454 kts | 306° |
| 2026-05-06 17:03 | 52.28691 | 17.42363 | 30963 ft | 454 kts | 306° |
| 2026-05-06 17:04 | 52.30677 | 17.38368 | 31301 ft | 453 kts | 306° |
| 2026-05-06 17:04 | 52.32632 | 17.34429 | 31615 ft | 451 kts | 306° |
| 2026-05-06 17:04 | 52.34603 | 17.30449 | 31955 ft | 450 kts | 305° |
| 2026-05-06 17:04 | 52.36567 | 17.26481 | 32299 ft | 449 kts | 305° |
| 2026-05-06 17:05 | 52.38529 | 17.22510 | 32637 ft | 447 kts | 305° |
| 2026-05-06 17:05 | 52.40478 | 17.18559 | 32990 ft | 445 kts | 305° |
| 2026-05-06 17:05 | 52.42415 | 17.14626 | 33332 ft | 443 kts | 305° |
| 2026-05-06 17:05 | 52.44344 | 17.10701 | 33704 ft | 441 kts | 304° |
| 2026-05-06 17:06 | 52.46262 | 17.06796 | 34017 ft | 439 kts | 304° |
| 2026-05-06 17:06 | 52.48171 | 17.02901 | 34323 ft | 437 kts | 304° |
| 2026-05-06 17:06 | 52.50067 | 16.99026 | 34642 ft | 435 kts | 304° |
| 2026-05-06 17:06 | 52.51953 | 16.95166 | 34947 ft | 433 kts | 304° |
| 2026-05-06 17:07 | 52.53830 | 16.91320 | 35251 ft | 430 kts | 304° |
| 2026-05-06 17:07 | 52.55698 | 16.87483 | 35497 ft | 430 kts | 304° |
| 2026-05-06 17:07 | 52.57564 | 16.83645 | 35751 ft | 429 kts | 304° |
| 2026-05-06 17:07 | 52.59423 | 16.79816 | 36009 ft | 428 kts | 304° |
| 2026-05-06 17:08 | 52.61279 | 16.75990 | 36259 ft | 427 kts | 304° |
| 2026-05-06 17:08 | 52.63127 | 16.72173 | 36532 ft | 426 kts | 304° |
| 2026-05-06 17:08 | 52.64967 | 16.68368 | 36772 ft | 424 kts | 304° |
| 2026-05-06 17:08 | 52.66802 | 16.64565 | 37022 ft | 423 kts | 304° |
| 2026-05-06 17:09 | 52.68628 | 16.60778 | 37256 ft | 422 kts | 304° |
| 2026-05-06 17:09 | 52.70448 | 16.56997 | 37470 ft | 420 kts | 304° |
| 2026-05-06 17:09 | 52.72261 | 16.53223 | 37719 ft | 419 kts | 304° |
| 2026-05-06 17:10 | 52.75899 | 16.45632 | 37819 ft | 424 kts | 304° |
| 2026-05-06 17:10 | 52.79550 | 16.37989 | 37826 ft | 429 kts | 304° |
| 2026-05-06 17:11 | 52.83271 | 16.30181 | 37828 ft | 435 kts | 304° |
| 2026-05-06 17:11 | 52.87029 | 16.22269 | 37831 ft | 440 kts | 304° |
| 2026-05-06 17:12 | 52.90824 | 16.14258 | 37819 ft | 444 kts | 304° |
| 2026-05-06 17:12 | 52.94644 | 16.06169 | 37826 ft | 447 kts | 304° |
| 2026-05-06 17:13 | 52.97860 | 15.99337 | 37824 ft | 449 kts | 304° |
| 2026-05-06 17:13 | 53.01692 | 15.91178 | 37808 ft | 445 kts | 304° |
| 2026-05-06 17:14 | 53.05456 | 15.83142 | 37815 ft | 439 kts | 303° |
| 2026-05-06 17:14 | 53.09191 | 15.75128 | 37822 ft | 438 kts | 303° |
| 2026-05-06 17:15 | 53.12915 | 15.67111 | 37834 ft | 443 kts | 303° |
| 2026-05-06 17:15 | 53.16690 | 15.58959 | 37835 ft | 446 kts | 303° |
| 2026-05-06 17:16 | 53.20493 | 15.50726 | 37843 ft | 449 kts | 303° |
| 2026-05-06 17:16 | 53.24309 | 15.42437 | 37836 ft | 451 kts | 303° |
| 2026-05-06 17:17 | 53.28123 | 15.34129 | 37841 ft | 450 kts | 303° |
| 2026-05-06 17:17 | 53.31922 | 15.25826 | 37831 ft | 448 kts | 303° |
| 2026-05-06 17:18 | 53.35684 | 15.17572 | 37844 ft | 446 kts | 303° |
| 2026-05-06 17:18 | 53.39435 | 15.09318 | 37848 ft | 443 kts | 303° |
| 2026-05-06 17:19 | 53.43156 | 15.01100 | 37857 ft | 442 kts | 303° |
| 2026-05-06 17:19 | 53.46859 | 14.92894 | 37850 ft | 441 kts | 302° |
| 2026-05-06 17:20 | 53.50556 | 14.84676 | 37854 ft | 441 kts | 302° |
| 2026-05-06 17:20 | 53.54253 | 14.76430 | 37863 ft | 442 kts | 302° |
| 2026-05-06 17:21 | 53.57952 | 14.68153 | 37863 ft | 443 kts | 302° |
| 2026-05-06 17:21 | 53.61654 | 14.59842 | 37862 ft | 444 kts | 302° |
| 2026-05-06 17:22 | 53.65361 | 14.51494 | 37868 ft | 445 kts | 302° |
| 2026-05-06 17:22 | 53.69070 | 14.43111 | 37879 ft | 446 kts | 302° |
| 2026-05-06 17:23 | 53.72782 | 14.34698 | 37885 ft | 447 kts | 302° |
| 2026-05-06 17:23 | 53.76637 | 14.26420 | 37875 ft | 451 kts | 308° |
| 2026-05-06 17:24 | 53.81155 | 14.19069 | 37886 ft | 455 kts | 312° |
| 2026-05-06 17:24 | 53.85795 | 14.11787 | 37896 ft | 456 kts | 312° |
| 2026-05-06 17:25 | 53.90433 | 14.04438 | 37891 ft | 457 kts | 311° |
| 2026-05-06 17:25 | 53.95060 | 13.97033 | 37886 ft | 457 kts | 311° |
| 2026-05-06 17:26 | 53.99674 | 13.89608 | 37885 ft | 457 kts | 311° |
| 2026-05-06 17:26 | 54.04276 | 13.82177 | 37889 ft | 456 kts | 311° |
| 2026-05-06 17:27 | 54.08863 | 13.74748 | 37893 ft | 455 kts | 311° |
| 2026-05-06 17:27 | 54.13439 | 13.67314 | 37906 ft | 454 kts | 311° |
| 2026-05-06 17:28 | 54.18006 | 13.59870 | 37908 ft | 454 kts | 311° |
| 2026-05-06 17:28 | 54.22565 | 13.52415 | 37910 ft | 454 kts | 311° |
| 2026-05-06 17:29 | 54.27118 | 13.44947 | 37912 ft | 454 kts | 311° |
| 2026-05-06 17:29 | 54.31671 | 13.37455 | 37916 ft | 454 kts | 311° |
| 2026-05-06 17:30 | 54.36219 | 13.29946 | 37918 ft | 454 kts | 311° |
| 2026-05-06 17:30 | 54.40766 | 13.22414 | 37921 ft | 454 kts | 311° |
| 2026-05-06 17:31 | 54.45310 | 13.14864 | 37925 ft | 455 kts | 311° |
| 2026-05-06 17:31 | 54.49853 | 13.07289 | 37921 ft | 455 kts | 311° |
| 2026-05-06 17:32 | 54.54396 | 12.99691 | 37924 ft | 455 kts | 311° |
| 2026-05-06 17:32 | 54.58936 | 12.92073 | 37910 ft | 456 kts | 311° |
| 2026-05-06 17:33 | 54.63613 | 12.84657 | 37927 ft | 458 kts | 314° |
| 2026-05-06 17:33 | 54.68401 | 12.77391 | 37929 ft | 458 kts | 314° |
| 2026-05-06 17:34 | 54.73177 | 12.70088 | 37933 ft | 459 kts | 314° |
| 2026-05-06 17:34 | 54.77934 | 12.62723 | 37943 ft | 459 kts | 313° |
| 2026-05-06 17:35 | 54.82682 | 12.55314 | 37948 ft | 459 kts | 313° |
| 2026-05-06 17:35 | 54.87426 | 12.47881 | 37951 ft | 460 kts | 313° |
| 2026-05-06 17:36 | 54.94545 | 12.36683 | 37956 ft | 460 kts | 313° |
| 2026-05-06 17:36 | 54.99287 | 12.29196 | 37957 ft | 461 kts | 313° |
| 2026-05-06 17:37 | 55.04033 | 12.21678 | 37953 ft | 461 kts | 313° |
| 2026-05-06 17:37 | 55.08771 | 12.14146 | 37957 ft | 461 kts | 313° |
| 2026-05-06 17:38 | 55.13507 | 12.06594 | 37953 ft | 461 kts | 313° |
| 2026-05-06 17:38 | 55.18260 | 11.98984 | 37969 ft | 465 kts | 313° |
| 2026-05-06 17:39 | 55.23051 | 11.91288 | 37967 ft | 470 kts | 313° |
| 2026-05-06 17:39 | 55.27886 | 11.83498 | 37969 ft | 473 kts | 313° |
| 2026-05-06 17:40 | 55.32741 | 11.75649 | 37967 ft | 476 kts | 313° |
| 2026-05-06 17:40 | 55.37626 | 11.67725 | 37951 ft | 479 kts | 313° |
| 2026-05-06 17:41 | 55.42494 | 11.59798 | 37951 ft | 481 kts | 313° |
| 2026-05-06 17:41 | 55.47409 | 11.51769 | 37955 ft | 483 kts | 313° |
| 2026-05-06 17:42 | 55.52336 | 11.43689 | 37956 ft | 484 kts | 313° |
| 2026-05-06 17:42 | 55.57265 | 11.35579 | 37954 ft | 485 kts | 313° |
| 2026-05-06 17:43 | 55.62209 | 11.27413 | 37955 ft | 486 kts | 313° |
| 2026-05-06 17:43 | 55.67154 | 11.19215 | 37951 ft | 489 kts | 313° |
| 2026-05-06 17:44 | 55.72122 | 11.10949 | 37951 ft | 490 kts | 313° |
| 2026-05-06 17:44 | 55.77092 | 11.02652 | 37948 ft | 491 kts | 313° |
| 2026-05-06 17:45 | 55.82059 | 10.94327 | 37948 ft | 491 kts | 313° |
| 2026-05-06 17:45 | 55.87027 | 10.85971 | 37949 ft | 492 kts | 313° |
| 2026-05-06 17:46 | 55.91993 | 10.77586 | 37945 ft | 492 kts | 313° |
| 2026-05-06 17:46 | 55.96959 | 10.69171 | 37952 ft | 492 kts | 312° |
| 2026-05-06 17:47 | 56.01919 | 10.60734 | 37939 ft | 492 kts | 312° |
| 2026-05-06 17:47 | 56.06878 | 10.52266 | 37945 ft | 493 kts | 312° |
| 2026-05-06 17:48 | 56.11828 | 10.43784 | 37944 ft | 493 kts | 312° |
| 2026-05-06 17:48 | 56.16771 | 10.35281 | 37941 ft | 492 kts | 312° |
| 2026-05-06 17:49 | 56.21709 | 10.26756 | 37947 ft | 492 kts | 312° |
| 2026-05-06 17:49 | 56.26641 | 10.18208 | 37929 ft | 492 kts | 312° |
| 2026-05-06 17:50 | 56.31561 | 10.09646 | 37931 ft | 492 kts | 312° |
| 2026-05-06 17:50 | 56.36473 | 10.01068 | 37941 ft | 492 kts | 312° |
| 2026-05-06 17:51 | 56.41384 | 9.92461 | 37944 ft | 491 kts | 311° |
| 2026-05-06 17:51 | 56.46245 | 9.83907 | 37947 ft | 491 kts | 311° |
| 2026-05-06 17:52 | 56.51136 | 9.75268 | 37945 ft | 491 kts | 311° |
| 2026-05-06 17:52 | 56.56014 | 9.66618 | 37950 ft | 491 kts | 311° |
| 2026-05-06 17:53 | 56.60884 | 9.57950 | 37952 ft | 490 kts | 311° |
| 2026-05-06 17:53 | 56.65742 | 9.49272 | 37956 ft | 490 kts | 311° |
| 2026-05-06 17:54 | 56.70599 | 9.40562 | 37959 ft | 490 kts | 311° |
| 2026-05-06 17:54 | 56.75441 | 9.31844 | 37965 ft | 489 kts | 311° |
| 2026-05-06 17:55 | 56.80276 | 9.23105 | 37967 ft | 489 kts | 311° |
| 2026-05-06 17:55 | 56.85102 | 9.14350 | 37968 ft | 489 kts | 311° |
| 2026-05-06 17:56 | 56.89919 | 9.05577 | 37983 ft | 488 kts | 311° |
| 2026-05-06 17:56 | 56.94726 | 8.96789 | 37977 ft | 488 kts | 310° |
| 2026-05-06 17:57 | 56.99522 | 8.87988 | 37982 ft | 488 kts | 310° |
| 2026-05-06 17:57 | 57.04314 | 8.79159 | 37980 ft | 488 kts | 310° |
| 2026-05-06 17:58 | 57.08287 | 8.71814 | 37984 ft | 487 kts | 310° |
| 2026-05-06 17:58 | 57.13059 | 8.62959 | 37971 ft | 487 kts | 310° |
| 2026-05-06 17:59 | 57.18590 | 8.52652 | 37972 ft | 487 kts | 310° |
| 2026-05-06 17:59 | 57.23342 | 8.43760 | 37983 ft | 487 kts | 310° |
| 2026-05-06 18:00 | 57.27319 | 8.36291 | 37982 ft | 486 kts | 310° |
| 2026-05-06 18:00 | 57.32055 | 8.27365 | 37991 ft | 486 kts | 310° |
| 2026-05-06 18:01 | 57.36784 | 8.18418 | 37984 ft | 486 kts | 310° |
| 2026-05-06 18:01 | 57.41511 | 8.09438 | 37981 ft | 486 kts | 310° |
| 2026-05-06 18:02 | 57.46225 | 8.00449 | 37989 ft | 486 kts | 310° |
| 2026-05-06 18:02 | 57.50932 | 7.91436 | 37993 ft | 486 kts | 310° |
| 2026-05-06 18:03 | 57.55635 | 7.82397 | 37978 ft | 486 kts | 310° |
| 2026-05-06 18:03 | 57.60330 | 7.73337 | 37985 ft | 486 kts | 310° |
| 2026-05-06 18:04 | 57.64985 | 7.64319 | 37977 ft | 486 kts | 310° |
| 2026-05-06 18:04 | 57.69661 | 7.55223 | 37976 ft | 485 kts | 310° |
| 2026-05-06 18:05 | 57.74358 | 7.46052 | 37979 ft | 485 kts | 310° |
| 2026-05-06 18:05 | 57.79018 | 7.36915 | 37979 ft | 485 kts | 310° |
| 2026-05-06 18:06 | 57.83668 | 7.27762 | 37981 ft | 484 kts | 310° |
| 2026-05-06 18:06 | 57.88279 | 7.18647 | 37987 ft | 484 kts | 309° |
| 2026-05-06 18:07 | 57.92910 | 7.09459 | 37987 ft | 484 kts | 309° |
| 2026-05-06 18:07 | 57.97528 | 7.00258 | 37987 ft | 484 kts | 309° |
| 2026-05-06 18:08 | 58.02141 | 6.91030 | 37996 ft | 483 kts | 309° |
| 2026-05-06 18:08 | 58.06743 | 6.81789 | 38000 ft | 483 kts | 309° |
| 2026-05-06 18:09 | 58.11337 | 6.72524 | 38002 ft | 483 kts | 309° |
| 2026-05-06 18:09 | 58.15927 | 6.63230 | 38010 ft | 483 kts | 309° |
| 2026-05-06 18:10 | 58.20507 | 6.53919 | 38013 ft | 483 kts | 309° |
| 2026-05-06 18:10 | 58.25077 | 6.44592 | 38019 ft | 482 kts | 309° |
| 2026-05-06 18:11 | 58.29641 | 6.35241 | 38022 ft | 482 kts | 309° |
| 2026-05-06 18:11 | 58.34191 | 6.25876 | 38029 ft | 482 kts | 309° |
| 2026-05-06 18:12 | 58.38736 | 6.16484 | 38012 ft | 482 kts | 309° |
| 2026-05-06 18:12 | 58.43269 | 6.07080 | 38025 ft | 481 kts | 309° |
| 2026-05-06 18:13 | 58.47792 | 5.97657 | 38037 ft | 481 kts | 309° |
| 2026-05-06 18:13 | 58.52301 | 5.88226 | 38042 ft | 481 kts | 309° |
| 2026-05-06 18:14 | 58.56808 | 5.78760 | 38044 ft | 481 kts | 309° |
| 2026-05-06 18:14 | 58.61303 | 5.69278 | 38052 ft | 480 kts | 309° |
| 2026-05-06 18:15 | 58.65790 | 5.59776 | 38049 ft | 480 kts | 309° |
| 2026-05-06 18:15 | 58.70271 | 5.50247 | 38050 ft | 480 kts | 309° |
| 2026-05-06 18:16 | 58.74713 | 5.40763 | 38053 ft | 480 kts | 308° |
| 2026-05-06 18:16 | 58.79170 | 5.31204 | 38053 ft | 480 kts | 308° |
| 2026-05-06 18:17 | 58.83621 | 5.21622 | 38054 ft | 479 kts | 308° |
| 2026-05-06 18:17 | 58.88065 | 5.12012 | 38054 ft | 479 kts | 308° |
| 2026-05-06 18:18 | 58.92497 | 5.02390 | 38068 ft | 479 kts | 308° |
| 2026-05-06 18:18 | 58.96918 | 4.92749 | 38065 ft | 479 kts | 308° |
| 2026-05-06 18:19 | 59.01337 | 4.83074 | 38061 ft | 479 kts | 308° |
| 2026-05-06 18:19 | 59.05746 | 4.73381 | 38059 ft | 479 kts | 308° |
| 2026-05-06 18:20 | 59.10149 | 4.63659 | 38062 ft | 479 kts | 308° |
| 2026-05-06 18:20 | 59.14546 | 4.53909 | 38060 ft | 479 kts | 308° |
| 2026-05-06 18:21 | 59.18933 | 4.44140 | 38054 ft | 479 kts | 308° |
| 2026-05-06 18:21 | 59.23315 | 4.34340 | 38059 ft | 479 kts | 308° |
| 2026-05-06 18:22 | 59.27688 | 4.24521 | 38061 ft | 479 kts | 308° |
| 2026-05-06 18:22 | 59.32055 | 4.14671 | 38065 ft | 479 kts | 307° |
| 2026-05-06 18:23 | 59.36416 | 4.04793 | 38062 ft | 479 kts | 307° |
| 2026-05-06 18:23 | 59.40769 | 3.94893 | 38060 ft | 479 kts | 307° |
| 2026-05-06 18:24 | 59.45115 | 3.84964 | 38062 ft | 479 kts | 307° |
| 2026-05-06 18:24 | 59.49455 | 3.75007 | 38060 ft | 479 kts | 307° |
| 2026-05-06 18:25 | 59.53786 | 3.65027 | 38058 ft | 479 kts | 307° |
| 2026-05-06 18:25 | 59.58110 | 3.55020 | 38057 ft | 479 kts | 307° |
| 2026-05-06 18:26 | 59.62428 | 3.44984 | 38059 ft | 479 kts | 307° |
| 2026-05-06 18:26 | 59.66733 | 3.34934 | 38054 ft | 479 kts | 307° |
| 2026-05-06 18:27 | 59.71030 | 3.24859 | 38055 ft | 479 kts | 307° |
| 2026-05-06 18:27 | 59.75290 | 3.14828 | 38053 ft | 479 kts | 307° |
| 2026-05-06 18:28 | 59.79568 | 3.04709 | 38049 ft | 478 kts | 307° |
| 2026-05-06 18:28 | 59.83841 | 2.94559 | 38051 ft | 478 kts | 307° |
| 2026-05-06 18:29 | 59.88097 | 2.84404 | 38047 ft | 478 kts | 307° |
| 2026-05-06 18:29 | 59.92350 | 2.74211 | 38049 ft | 478 kts | 307° |
| 2026-05-06 18:30 | 59.96590 | 2.64005 | 38047 ft | 478 kts | 306° |
| 2026-05-06 18:30 | 60.00824 | 2.53768 | 38044 ft | 478 kts | 306° |
| 2026-05-06 18:31 | 60.05044 | 2.43518 | 38044 ft | 477 kts | 306° |
| 2026-05-06 18:31 | 60.09257 | 2.33242 | 38041 ft | 477 kts | 306° |
| 2026-05-06 18:32 | 60.13460 | 2.22942 | 38041 ft | 477 kts | 306° |
| 2026-05-06 18:32 | 60.17661 | 2.12604 | 38042 ft | 477 kts | 306° |
| 2026-05-06 18:33 | 60.21847 | 2.02255 | 38038 ft | 477 kts | 306° |
| 2026-05-06 18:33 | 60.26031 | 1.91863 | 38036 ft | 478 kts | 306° |
| 2026-05-06 18:34 | 60.30211 | 1.81436 | 38036 ft | 478 kts | 306° |
| 2026-05-06 18:34 | 60.34386 | 1.70973 | 38036 ft | 479 kts | 306° |
| 2026-05-06 18:35 | 60.38529 | 1.60543 | 38036 ft | 479 kts | 306° |
| 2026-05-06 18:35 | 60.42696 | 1.50006 | 38035 ft | 480 kts | 306° |
| 2026-05-06 18:36 | 60.46860 | 1.39430 | 38034 ft | 480 kts | 306° |
| 2026-05-06 18:36 | 60.51021 | 1.28811 | 38032 ft | 481 kts | 306° |
| 2026-05-06 18:37 | 60.54500 | 1.19896 | 38029 ft | 481 kts | 306° |
| 2026-05-06 18:37 | 60.59321 | 1.07482 | 38025 ft | 481 kts | 306° |
| 2026-05-06 18:38 | 60.63462 | 0.96768 | 38032 ft | 481 kts | 306° |
| 2026-05-06 18:38 | 60.67595 | 0.86024 | 38028 ft | 481 kts | 306° |
| 2026-05-06 18:39 | 60.71718 | 0.75257 | 38019 ft | 481 kts | 306° |
| 2026-05-06 18:40 | 60.77886 | 0.59052 | 38021 ft | 481 kts | 306° |
| 2026-05-06 18:40 | 60.81988 | 0.48214 | 38019 ft | 481 kts | 305° |
| 2026-05-06 18:41 | 60.86081 | 0.37346 | 38021 ft | 481 kts | 305° |
| 2026-05-06 18:41 | 60.90163 | 0.26458 | 38019 ft | 481 kts | 305° |
| 2026-05-06 18:42 | 60.94240 | 0.15529 | 38020 ft | 481 kts | 305° |
| 2026-05-06 18:42 | 60.98304 | 0.04591 | 38017 ft | 481 kts | 305° |
| 2026-05-06 18:43 | 61.02362 | -0.06380 | 38017 ft | 481 kts | 305° |
| 2026-05-06 18:43 | 61.06415 | -0.17377 | 38017 ft | 481 kts | 305° |
| 2026-05-06 18:44 | 61.10457 | -0.28396 | 38016 ft | 481 kts | 305° |
| 2026-05-06 18:44 | 61.14492 | -0.39449 | 38014 ft | 481 kts | 305° |
| 2026-05-06 18:45 | 61.18521 | -0.50538 | 38015 ft | 482 kts | 305° |
| 2026-05-06 18:45 | 61.21861 | -0.59774 | 38012 ft | 482 kts | 304° |
| 2026-05-06 18:46 | 61.25876 | -0.70926 | 38012 ft | 482 kts | 304° |
| 2026-05-06 18:46 | 61.29883 | -0.82108 | 38013 ft | 482 kts | 304° |
| 2026-05-06 18:47 | 61.33886 | -0.93334 | 38015 ft | 483 kts | 304° |
| 2026-05-06 18:47 | 61.37881 | -1.04592 | 38021 ft | 483 kts | 304° |
| 2026-05-06 18:48 | 61.41869 | -1.15884 | 38014 ft | 484 kts | 304° |
| 2026-05-06 18:48 | 61.45853 | -1.27222 | 38016 ft | 484 kts | 304° |
| 2026-05-06 18:49 | 61.49802 | -1.38515 | 38015 ft | 484 kts | 304° |
| 2026-05-06 18:49 | 61.53795 | -1.49991 | 38016 ft | 484 kts | 304° |
| 2026-05-06 18:50 | 61.57731 | -1.61358 | 38013 ft | 485 kts | 304° |
| 2026-05-06 18:50 | 61.61683 | -1.72828 | 38012 ft | 485 kts | 304° |
| 2026-05-06 18:51 | 61.65628 | -1.84337 | 38017 ft | 485 kts | 304° |
| 2026-05-06 18:51 | 61.69567 | -1.95885 | 38015 ft | 486 kts | 304° |
| 2026-05-06 18:52 | 61.73497 | -2.07464 | 38009 ft | 486 kts | 304° |
| 2026-05-06 18:52 | 61.77418 | -2.19076 | 38020 ft | 486 kts | 304° |
| 2026-05-06 18:53 | 61.81335 | -2.30734 | 38013 ft | 486 kts | 304° |
| 2026-05-06 18:53 | 61.85242 | -2.42422 | 38014 ft | 486 kts | 304° |
| 2026-05-06 18:54 | 61.89139 | -2.54139 | 38011 ft | 486 kts | 304° |
| 2026-05-06 18:54 | 61.93024 | -2.65880 | 38017 ft | 486 kts | 303° |
| 2026-05-06 18:55 | 61.96901 | -2.77659 | 38022 ft | 486 kts | 303° |
| 2026-05-06 18:55 | 62.00769 | -2.89470 | 38022 ft | 486 kts | 303° |
| 2026-05-06 18:56 | 62.04626 | -3.01306 | 38021 ft | 486 kts | 303° |
| 2026-05-06 18:56 | 62.08472 | -3.13172 | 38022 ft | 486 kts | 303° |
| 2026-05-06 18:57 | 62.12311 | -3.25078 | 38023 ft | 486 kts | 303° |
| 2026-05-06 18:57 | 62.16137 | -3.37004 | 38014 ft | 486 kts | 303° |
| 2026-05-06 18:58 | 62.19956 | -3.48972 | 38019 ft | 487 kts | 303° |
| 2026-05-06 18:58 | 62.23759 | -3.60953 | 38019 ft | 487 kts | 303° |
| 2026-05-06 18:59 | 62.27561 | -3.72990 | 38029 ft | 487 kts | 303° |
| 2026-05-06 18:59 | 62.31321 | -3.84962 | 38024 ft | 487 kts | 303° |
| 2026-05-06 19:00 | 62.35097 | -3.97044 | 38025 ft | 487 kts | 303° |
| 2026-05-06 19:00 | 62.38867 | -4.09171 | 38028 ft | 487 kts | 303° |
| 2026-05-06 19:01 | 62.42623 | -4.21320 | 38029 ft | 487 kts | 302° |
| 2026-05-06 19:01 | 62.46369 | -4.33501 | 38033 ft | 487 kts | 302° |
| 2026-05-06 19:02 | 62.50106 | -4.45717 | 38032 ft | 487 kts | 302° |
| 2026-05-06 19:02 | 62.53831 | -4.57961 | 38038 ft | 487 kts | 302° |
| 2026-05-06 19:03 | 62.57545 | -4.70232 | 38038 ft | 487 kts | 302° |
| 2026-05-06 19:03 | 62.61253 | -4.82552 | 38038 ft | 487 kts | 302° |
| 2026-05-06 19:04 | 62.64948 | -4.94892 | 38037 ft | 487 kts | 302° |
| 2026-05-06 19:04 | 62.68633 | -5.07270 | 38040 ft | 488 kts | 302° |
| 2026-05-06 19:05 | 62.72314 | -5.19700 | 38036 ft | 488 kts | 302° |
| 2026-05-06 19:05 | 62.75980 | -5.32148 | 38041 ft | 488 kts | 302° |
| 2026-05-06 19:06 | 62.79641 | -5.44649 | 38039 ft | 488 kts | 302° |
| 2026-05-06 19:06 | 62.83289 | -5.57171 | 38043 ft | 489 kts | 302° |
| 2026-05-06 19:07 | 62.86929 | -5.69739 | 38048 ft | 489 kts | 301° |
| 2026-05-06 19:07 | 62.90560 | -5.82344 | 38043 ft | 489 kts | 301° |
| 2026-05-06 19:08 | 62.94180 | -5.94980 | 38051 ft | 489 kts | 301° |
| 2026-05-06 19:08 | 62.97793 | -6.07663 | 38047 ft | 489 kts | 301° |
| 2026-05-06 19:09 | 63.01394 | -6.20378 | 38050 ft | 490 kts | 301° |
| 2026-05-06 19:09 | 63.04962 | -6.33044 | 38048 ft | 490 kts | 301° |
| 2026-05-06 19:10 | 63.08546 | -6.45838 | 38052 ft | 490 kts | 301° |
| 2026-05-06 19:10 | 63.12118 | -6.58665 | 38054 ft | 490 kts | 301° |
| 2026-05-06 19:11 | 63.15678 | -6.71523 | 38056 ft | 491 kts | 301° |
| 2026-05-06 19:11 | 63.19230 | -6.84424 | 38061 ft | 491 kts | 301° |
| 2026-05-06 19:12 | 63.22772 | -6.97361 | 38063 ft | 491 kts | 300° |
| 2026-05-06 19:12 | 63.26299 | -7.10319 | 38060 ft | 491 kts | 300° |
| 2026-05-06 19:13 | 63.29814 | -7.23313 | 38060 ft | 491 kts | 300° |
| 2026-05-06 19:13 | 63.33319 | -7.36339 | 38062 ft | 491 kts | 300° |
| 2026-05-06 19:14 | 63.36814 | -7.49405 | 38070 ft | 491 kts | 300° |
| 2026-05-06 19:14 | 63.40293 | -7.62490 | 38064 ft | 491 kts | 300° |
| 2026-05-06 19:15 | 63.43760 | -7.75607 | 38077 ft | 490 kts | 300° |
| 2026-05-06 19:15 | 63.47215 | -7.88755 | 38073 ft | 490 kts | 300° |
| 2026-05-06 19:16 | 63.50658 | -8.01935 | 38072 ft | 490 kts | 300° |
| 2026-05-06 19:16 | 63.54088 | -8.15141 | 38077 ft | 490 kts | 300° |
| 2026-05-06 19:17 | 63.57508 | -8.28391 | 38083 ft | 491 kts | 300° |
| 2026-05-06 19:17 | 63.60915 | -8.41668 | 38086 ft | 491 kts | 300° |
| 2026-05-06 19:18 | 63.64314 | -8.54992 | 38088 ft | 491 kts | 299° |
| 2026-05-06 19:18 | 63.67679 | -8.68263 | 38085 ft | 491 kts | 299° |
| 2026-05-06 19:19 | 63.71056 | -8.81664 | 38088 ft | 491 kts | 299° |
| 2026-05-06 19:19 | 63.74417 | -8.95084 | 38093 ft | 492 kts | 299° |
| 2026-05-06 19:20 | 63.77773 | -9.08561 | 38091 ft | 492 kts | 299° |
| 2026-05-06 19:20 | 63.81113 | -9.22059 | 38096 ft | 492 kts | 299° |
| 2026-05-06 19:21 | 63.84444 | -9.35604 | 38098 ft | 492 kts | 299° |
| 2026-05-06 19:21 | 63.87757 | -9.49163 | 38101 ft | 491 kts | 298° |
| 2026-05-06 19:22 | 63.91057 | -9.62747 | 38099 ft | 491 kts | 298° |
| 2026-05-06 19:22 | 63.94337 | -9.76337 | 38102 ft | 491 kts | 298° |
| 2026-05-06 19:23 | 63.97610 | -9.89974 | 38107 ft | 491 kts | 298° |
| 2026-05-06 19:23 | 64.00877 | -10.03622 | 38113 ft | 491 kts | 299° |
| 2026-05-06 19:24 | 64.04241 | -10.17171 | 38115 ft | 491 kts | 300° |
| 2026-05-06 19:24 | 64.07614 | -10.30619 | 38113 ft | 491 kts | 300° |
| 2026-05-06 19:25 | 64.11011 | -10.44295 | 38118 ft | 491 kts | 300° |
| 2026-05-06 19:25 | 64.14336 | -10.57829 | 38118 ft | 490 kts | 299° |
| 2026-05-06 19:26 | 64.17653 | -10.71441 | 38127 ft | 489 kts | 299° |
| 2026-05-06 19:26 | 64.20955 | -10.85074 | 38122 ft | 488 kts | 299° |
| 2026-05-06 19:27 | 64.24235 | -10.98701 | 38122 ft | 486 kts | 299° |
| 2026-05-06 19:27 | 64.27475 | -11.12242 | 38129 ft | 479 kts | 299° |
| 2026-05-06 19:28 | 64.30675 | -11.25694 | 38139 ft | 480 kts | 299° |
| 2026-05-06 19:28 | 64.33874 | -11.39232 | 38128 ft | 480 kts | 299° |
| 2026-05-06 19:29 | 64.37056 | -11.52781 | 38144 ft | 481 kts | 298° |
| 2026-05-06 19:29 | 64.40224 | -11.66355 | 38144 ft | 480 kts | 298° |
| 2026-05-06 19:30 | 64.43386 | -11.79986 | 38153 ft | 482 kts | 298° |
| 2026-05-06 19:30 | 64.46534 | -11.93642 | 38151 ft | 480 kts | 298° |
| 2026-05-06 19:31 | 64.49669 | -12.07331 | 38155 ft | 481 kts | 298° |
| 2026-05-06 19:31 | 64.54339 | -12.27888 | 38163 ft | 480 kts | 298° |
| 2026-05-06 19:32 | 64.57440 | -12.41642 | 38164 ft | 481 kts | 298° |
| 2026-05-06 19:32 | 64.60538 | -12.55472 | 38167 ft | 481 kts | 298° |
| 2026-05-06 19:33 | 64.63611 | -12.69281 | 38173 ft | 480 kts | 298° |
| 2026-05-06 19:33 | 64.66677 | -12.83154 | 38178 ft | 482 kts | 298° |
| 2026-05-06 19:34 | 64.69725 | -12.97030 | 38179 ft | 483 kts | 298° |
| 2026-05-06 19:34 | 64.72279 | -13.08722 | 38172 ft | 480 kts | 297° |
| 2026-05-06 19:35 | 64.75305 | -13.22664 | 38192 ft | 481 kts | 297° |
| 2026-05-06 19:35 | 64.78822 | -13.38990 | 38189 ft | 484 kts | 297° |
| 2026-05-06 19:36 | 64.81350 | -13.50800 | 38190 ft | 484 kts | 297° |
| 2026-05-06 19:36 | 64.84361 | -13.64946 | 38194 ft | 485 kts | 297° |
| 2026-05-06 19:37 | 64.87363 | -13.79154 | 38199 ft | 486 kts | 297° |
| 2026-05-06 19:37 | 64.90361 | -13.93439 | 38197 ft | 487 kts | 297° |
| 2026-05-06 19:38 | 64.93321 | -14.07637 | 38198 ft | 486 kts | 297° |
| 2026-05-06 19:38 | 64.96313 | -14.22086 | 38213 ft | 488 kts | 297° |
| 2026-05-06 19:39 | 64.99273 | -14.36487 | 38221 ft | 487 kts | 297° |
| 2026-05-06 19:39 | 65.02228 | -14.50954 | 38223 ft | 489 kts | 297° |
| 2026-05-06 19:40 | 65.05174 | -14.65483 | 38223 ft | 489 kts | 296° |
| 2026-05-06 19:40 | 65.08085 | -14.79941 | 38239 ft | 489 kts | 296° |
| 2026-05-06 19:41 | 65.10995 | -14.94488 | 38239 ft | 489 kts | 296° |
| 2026-05-06 19:41 | 65.13899 | -15.09111 | 38237 ft | 489 kts | 296° |
| 2026-05-06 19:42 | 65.16785 | -15.23750 | 38241 ft | 489 kts | 296° |
| 2026-05-06 19:42 | 65.19656 | -15.38413 | 38244 ft | 488 kts | 296° |
| 2026-05-06 19:43 | 65.22510 | -15.53099 | 38247 ft | 489 kts | 296° |
| 2026-05-06 19:43 | 65.25351 | -15.67822 | 38243 ft | 488 kts | 296° |
| 2026-05-06 19:44 | 65.28177 | -15.82575 | 38252 ft | 489 kts | 295° |
| 2026-05-06 19:44 | 65.30988 | -15.97351 | 38249 ft | 489 kts | 296° |
| 2026-05-06 19:45 | 65.33790 | -16.12192 | 38248 ft | 490 kts | 295° |
| 2026-05-06 19:45 | 65.36579 | -16.27074 | 38250 ft | 489 kts | 295° |
| 2026-05-06 19:46 | 65.39353 | -16.41982 | 38256 ft | 491 kts | 295° |
| 2026-05-06 19:46 | 65.42118 | -16.56958 | 38259 ft | 490 kts | 295° |
| 2026-05-06 19:47 | 65.44872 | -16.71979 | 38280 ft | 492 kts | 295° |
| 2026-05-06 19:47 | 65.47622 | -16.87091 | 38290 ft | 494 kts | 295° |
| 2026-05-06 19:48 | 65.50363 | -17.02276 | 38279 ft | 495 kts | 295° |
| 2026-05-06 19:48 | 65.53100 | -17.17555 | 38290 ft | 497 kts | 294° |
| 2026-05-06 19:49 | 65.55827 | -17.32898 | 38288 ft | 498 kts | 294° |
| 2026-05-06 19:49 | 65.58550 | -17.48340 | 38296 ft | 500 kts | 294° |
| 2026-05-06 19:50 | 65.61260 | -17.63823 | 38294 ft | 500 kts | 294° |
| 2026-05-06 19:50 | 65.63958 | -17.79360 | 38293 ft | 501 kts | 294° |
| 2026-05-06 19:51 | 65.66627 | -17.94858 | 38295 ft | 502 kts | 294° |
| 2026-05-06 19:51 | 65.69318 | -18.10602 | 38294 ft | 502 kts | 294° |
| 2026-05-06 19:52 | 65.71956 | -18.26168 | 38296 ft | 502 kts | 294° |
| 2026-05-06 19:52 | 65.74601 | -18.41899 | 38283 ft | 502 kts | 293° |
| 2026-05-06 19:53 | 65.77226 | -18.57646 | 38299 ft | 502 kts | 293° |
| 2026-05-06 19:53 | 65.79837 | -18.73433 | 38303 ft | 502 kts | 293° |
| 2026-05-06 19:54 | 65.82432 | -18.89250 | 38303 ft | 502 kts | 293° |
| 2026-05-06 19:54 | 65.85008 | -19.05090 | 38302 ft | 502 kts | 293° |
| 2026-05-06 19:55 | 65.87565 | -19.20939 | 38309 ft | 501 kts | 292° |
| 2026-05-06 19:55 | 65.90105 | -19.36823 | 38302 ft | 501 kts | 292° |
| 2026-05-06 19:56 | 65.92628 | -19.52729 | 38301 ft | 501 kts | 292° |
| 2026-05-06 19:56 | 65.95131 | -19.68641 | 38313 ft | 500 kts | 292° |
| 2026-05-06 19:57 | 65.97613 | -19.84556 | 38316 ft | 499 kts | 292° |
| 2026-05-06 19:57 | 66.00078 | -20.00485 | 38319 ft | 499 kts | 292° |
| 2026-05-06 19:58 | 66.02361 | -20.16577 | 38324 ft | 499 kts | 290° |
| 2026-05-06 19:58 | 66.04502 | -20.32800 | 38319 ft | 498 kts | 290° |
| 2026-05-06 19:59 | 66.06633 | -20.49025 | 38326 ft | 498 kts | 290° |
| 2026-05-06 19:59 | 66.08773 | -20.65245 | 38332 ft | 498 kts | 290° |
| 2026-05-06 20:00 | 66.10905 | -20.81468 | 38332 ft | 498 kts | 290° |
| 2026-05-06 20:00 | 66.13022 | -20.97724 | 38339 ft | 498 kts | 289° |
| 2026-05-06 20:01 | 66.15123 | -21.14025 | 38348 ft | 498 kts | 289° |
| 2026-05-06 20:01 | 66.17204 | -21.30339 | 38340 ft | 498 kts | 289° |
| 2026-05-06 20:02 | 66.19268 | -21.46687 | 38347 ft | 498 kts | 289° |
| 2026-05-06 20:02 | 66.21302 | -21.62955 | 38355 ft | 498 kts | 289° |
| 2026-05-06 20:03 | 66.23331 | -21.79349 | 38361 ft | 498 kts | 289° |
| 2026-05-06 20:03 | 66.25346 | -21.95792 | 38361 ft | 498 kts | 289° |
| 2026-05-06 20:04 | 66.27342 | -22.12255 | 38361 ft | 498 kts | 289° |
| 2026-05-06 20:04 | 66.29320 | -22.28742 | 38364 ft | 498 kts | 289° |
| 2026-05-06 20:05 | 66.31283 | -22.45264 | 38366 ft | 499 kts | 288° |
| 2026-05-06 20:05 | 66.33230 | -22.61830 | 38366 ft | 499 kts | 288° |
| 2026-05-06 20:06 | 66.35159 | -22.78419 | 38362 ft | 499 kts | 288° |
| 2026-05-06 20:06 | 66.37071 | -22.95040 | 38382 ft | 499 kts | 288° |
| 2026-05-06 20:07 | 66.38966 | -23.11692 | 38367 ft | 499 kts | 288° |
| 2026-05-06 20:07 | 66.40843 | -23.28370 | 38380 ft | 499 kts | 288° |
| 2026-05-06 20:08 | 66.42702 | -23.45068 | 38381 ft | 499 kts | 287° |
| 2026-05-06 20:08 | 66.44544 | -23.61802 | 38381 ft | 499 kts | 287° |
| 2026-05-06 20:09 | 66.46369 | -23.78570 | 38385 ft | 499 kts | 287° |
| 2026-05-06 20:09 | 66.48176 | -23.95352 | 38384 ft | 500 kts | 287° |
| 2026-05-06 20:10 | 66.49965 | -24.12169 | 38389 ft | 500 kts | 287° |
| 2026-05-06 20:10 | 66.51736 | -24.29004 | 38387 ft | 500 kts | 287° |
| 2026-05-06 20:11 | 66.53477 | -24.45753 | 38392 ft | 500 kts | 287° |
| 2026-05-06 20:11 | 66.55211 | -24.62635 | 38393 ft | 500 kts | 287° |
| 2026-05-06 20:12 | 66.56930 | -24.79561 | 38398 ft | 500 kts | 287° |
| 2026-05-06 20:12 | 66.58628 | -24.96495 | 38397 ft | 500 kts | 286° |
| 2026-05-06 20:13 | 66.60310 | -25.13469 | 38397 ft | 500 kts | 286° |
| 2026-05-06 20:13 | 66.61973 | -25.30456 | 38399 ft | 500 kts | 286° |
| 2026-05-06 20:14 | 66.63617 | -25.47466 | 38403 ft | 500 kts | 286° |
| 2026-05-06 20:14 | 66.65244 | -25.64507 | 38407 ft | 500 kts | 286° |
| 2026-05-06 20:15 | 66.66852 | -25.81566 | 38409 ft | 500 kts | 286° |
| 2026-05-06 20:15 | 66.68441 | -25.98651 | 38407 ft | 500 kts | 285° |
| 2026-05-06 20:16 | 66.70012 | -26.15749 | 38412 ft | 500 kts | 285° |
| 2026-05-06 20:16 | 66.71565 | -26.32890 | 38411 ft | 500 kts | 285° |
| 2026-05-06 20:17 | 66.73099 | -26.50035 | 38413 ft | 500 kts | 285° |
| 2026-05-06 20:17 | 66.74613 | -26.67197 | 38409 ft | 500 kts | 285° |
| 2026-05-06 20:18 | 66.76109 | -26.84371 | 38409 ft | 500 kts | 285° |
| 2026-05-06 20:18 | 66.77586 | -27.01573 | 38411 ft | 500 kts | 285° |
| 2026-05-06 20:19 | 66.79044 | -27.18796 | 38413 ft | 500 kts | 285° |
| 2026-05-06 20:19 | 66.80483 | -27.36034 | 38412 ft | 500 kts | 285° |
| 2026-05-06 20:20 | 66.81904 | -27.53301 | 38411 ft | 500 kts | 284° |
| 2026-05-06 20:20 | 66.83306 | -27.70588 | 38412 ft | 500 kts | 284° |
| 2026-05-06 20:21 | 66.84689 | -27.87894 | 38414 ft | 500 kts | 284° |
| 2026-05-06 20:21 | 66.85824 | -28.02287 | 38416 ft | 500 kts | 284° |
| 2026-05-06 20:22 | 66.87172 | -28.19621 | 38415 ft | 500 kts | 284° |
| 2026-05-06 20:22 | 66.88502 | -28.36977 | 38411 ft | 500 kts | 284° |
| 2026-05-06 20:23 | 66.89813 | -28.54362 | 38413 ft | 500 kts | 284° |
| 2026-05-06 20:23 | 66.91104 | -28.71755 | 38413 ft | 500 kts | 284° |
| 2026-05-06 20:24 | 66.92376 | -28.89168 | 38411 ft | 500 kts | 284° |
| 2026-05-06 20:24 | 66.93630 | -29.06613 | 38413 ft | 500 kts | 283° |
| 2026-05-06 20:25 | 66.94865 | -29.24063 | 38413 ft | 500 kts | 283° |
| 2026-05-06 20:25 | 66.96081 | -29.41544 | 38416 ft | 500 kts | 283° |
| 2026-05-06 20:26 | 66.97276 | -29.59021 | 38400 ft | 500 kts | 283° |
| 2026-05-06 20:26 | 66.98454 | -29.76541 | 38404 ft | 500 kts | 283° |
| 2026-05-06 20:27 | 66.99615 | -29.94066 | 38408 ft | 500 kts | 283° |
| 2026-05-06 20:27 | 67.00447 | -30.11754 | 38400 ft | 502 kts | 278° |
| 2026-05-06 20:28 | 67.00955 | -30.29574 | 38417 ft | 503 kts | 277° |
| 2026-05-06 20:28 | 67.01428 | -30.47422 | 38411 ft | 503 kts | 277° |
| 2026-05-06 20:29 | 67.01909 | -30.65260 | 38400 ft | 503 kts | 277° |
| 2026-05-06 20:29 | 67.02386 | -30.83107 | 38402 ft | 503 kts | 277° |
| 2026-05-06 20:30 | 67.03069 | -31.09887 | 38400 ft | 503 kts | 277° |
| 2026-05-06 20:31 | 67.03497 | -31.27756 | 38399 ft | 503 kts | 277° |
| 2026-05-06 20:31 | 67.03902 | -31.45504 | 38398 ft | 503 kts | 277° |
| 2026-05-06 20:32 | 67.04290 | -31.63388 | 38398 ft | 503 kts | 277° |
| 2026-05-06 20:32 | 67.04657 | -31.81265 | 38402 ft | 503 kts | 277° |
| 2026-05-06 20:33 | 67.05005 | -31.99169 | 38400 ft | 503 kts | 277° |
| 2026-05-06 20:33 | 67.05333 | -32.17058 | 38403 ft | 503 kts | 276° |
| 2026-05-06 20:34 | 67.05641 | -32.34975 | 38402 ft | 503 kts | 276° |
| 2026-05-06 20:34 | 67.05928 | -32.52886 | 38394 ft | 503 kts | 276° |
| 2026-05-06 20:35 | 67.06196 | -32.70807 | 38397 ft | 503 kts | 276° |
| 2026-05-06 20:35 | 67.06443 | -32.88722 | 38395 ft | 503 kts | 276° |
| 2026-05-06 20:36 | 67.06670 | -33.06653 | 38388 ft | 503 kts | 276° |
| 2026-05-06 20:36 | 67.06811 | -33.18630 | 38391 ft | 503 kts | 276° |
| 2026-05-06 20:37 | 67.06892 | -33.25524 | 38391 ft | 503 kts | 276° |
| 2026-05-06 20:37 | 67.07093 | -33.43423 | 38390 ft | 502 kts | 276° |
| 2026-05-06 20:38 | 67.07258 | -33.61346 | 38387 ft | 502 kts | 276° |
| 2026-05-06 20:38 | 67.07403 | -33.79259 | 38395 ft | 503 kts | 276° |
| 2026-05-06 20:39 | 67.07530 | -33.97212 | 38378 ft | 504 kts | 275° |
| 2026-05-06 20:39 | 67.07634 | -34.15144 | 38393 ft | 503 kts | 275° |
| 2026-05-06 20:40 | 67.07718 | -34.33065 | 38382 ft | 502 kts | 275° |
| 2026-05-06 20:40 | 67.07782 | -34.50971 | 38391 ft | 502 kts | 275° |
| 2026-05-06 20:41 | 67.07827 | -34.68866 | 38400 ft | 501 kts | 275° |
| 2026-05-06 20:41 | 67.07853 | -34.86737 | 38402 ft | 501 kts | 275° |
| 2026-05-06 20:42 | 67.07858 | -35.04626 | 38389 ft | 501 kts | 275° |
| 2026-05-06 20:42 | 67.07842 | -35.22501 | 38391 ft | 501 kts | 274° |
| 2026-05-06 20:43 | 67.07807 | -35.40348 | 38381 ft | 501 kts | 274° |
| 2026-05-06 20:43 | 67.07752 | -35.58208 | 38385 ft | 500 kts | 274° |
| 2026-05-06 20:44 | 67.07677 | -35.76068 | 38372 ft | 501 kts | 274° |
| 2026-05-06 20:44 | 67.07582 | -35.93917 | 38376 ft | 501 kts | 274° |
| 2026-05-06 20:45 | 67.07467 | -36.11758 | 38371 ft | 500 kts | 274° |
| 2026-05-06 20:45 | 67.07332 | -36.29581 | 38359 ft | 500 kts | 274° |
| 2026-05-06 20:46 | 67.07178 | -36.47272 | 38348 ft | 500 kts | 273° |
| 2026-05-06 20:46 | 67.07004 | -36.65084 | 38353 ft | 500 kts | 273° |
| 2026-05-06 20:47 | 67.06810 | -36.82904 | 38344 ft | 500 kts | 273° |
| 2026-05-06 20:47 | 67.06596 | -37.00718 | 38339 ft | 500 kts | 273° |
| 2026-05-06 20:48 | 67.06362 | -37.18525 | 38346 ft | 500 kts | 273° |
| 2026-05-06 20:48 | 67.06108 | -37.36324 | 38345 ft | 500 kts | 272° |
| 2026-05-06 20:49 | 67.05835 | -37.54127 | 38351 ft | 500 kts | 272° |
| 2026-05-06 20:49 | 67.05541 | -37.71902 | 38363 ft | 500 kts | 272° |
| 2026-05-06 20:50 | 67.05228 | -37.89692 | 38368 ft | 500 kts | 272° |
| 2026-05-06 20:50 | 67.04895 | -38.07466 | 38375 ft | 499 kts | 272° |
| 2026-05-06 20:51 | 67.04541 | -38.25225 | 38391 ft | 499 kts | 272° |
| 2026-05-06 20:51 | 67.04169 | -38.42978 | 38405 ft | 499 kts | 272° |
| 2026-05-06 20:52 | 67.03778 | -38.60703 | 38414 ft | 499 kts | 272° |
| 2026-05-06 20:52 | 67.03366 | -38.78424 | 38428 ft | 498 kts | 272° |
| 2026-05-06 20:53 | 67.02935 | -38.96138 | 38429 ft | 498 kts | 271° |
| 2026-05-06 20:53 | 67.02485 | -39.13815 | 38441 ft | 498 kts | 271° |
| 2026-05-06 20:54 | 67.02015 | -39.31488 | 38457 ft | 497 kts | 271° |
| 2026-05-06 20:54 | 67.01525 | -39.49146 | 38454 ft | 497 kts | 271° |
| 2026-05-06 20:55 | 67.01016 | -39.66763 | 38460 ft | 497 kts | 271° |
| 2026-05-06 20:55 | 67.00493 | -39.84262 | 38476 ft | 496 kts | 271° |
| 2026-05-06 20:56 | 66.99912 | -40.01823 | 38473 ft | 497 kts | 268° |
| 2026-05-06 20:56 | 66.98805 | -40.19331 | 38480 ft | 499 kts | 265° |
| 2026-05-06 20:57 | 66.97597 | -40.36781 | 38485 ft | 499 kts | 265° |
| 2026-05-06 20:57 | 66.96385 | -40.54212 | 38487 ft | 498 kts | 265° |
| 2026-05-06 20:58 | 66.95173 | -40.71626 | 38493 ft | 498 kts | 265° |
| 2026-05-06 20:58 | 66.93949 | -40.89018 | 38490 ft | 498 kts | 265° |
| 2026-05-06 20:59 | 66.92706 | -41.06406 | 38490 ft | 498 kts | 265° |
| 2026-05-06 20:59 | 66.91445 | -41.23755 | 38488 ft | 498 kts | 265° |
| 2026-05-06 21:00 | 66.90163 | -41.41086 | 38481 ft | 498 kts | 265° |
| 2026-05-06 21:00 | 66.88862 | -41.58411 | 38480 ft | 498 kts | 264° |
| 2026-05-06 21:01 | 66.87542 | -41.75718 | 38469 ft | 498 kts | 264° |
| 2026-05-06 21:01 | 66.86202 | -41.93025 | 38468 ft | 499 kts | 264° |
| 2026-05-06 21:02 | 66.84843 | -42.10306 | 38458 ft | 499 kts | 264° |
| 2026-05-06 21:02 | 66.83465 | -42.27577 | 38463 ft | 499 kts | 264° |
| 2026-05-06 21:03 | 66.82067 | -42.44844 | 38456 ft | 500 kts | 264° |
| 2026-05-06 21:03 | 66.80647 | -42.62117 | 38452 ft | 500 kts | 263° |
| 2026-05-06 21:04 | 66.79218 | -42.79267 | 38440 ft | 501 kts | 263° |
| 2026-05-06 21:04 | 66.77757 | -42.96547 | 38435 ft | 502 kts | 263° |
| 2026-05-06 21:05 | 66.76275 | -43.13829 | 38437 ft | 502 kts | 263° |
| 2026-05-06 21:05 | 66.74773 | -43.31107 | 38425 ft | 503 kts | 263° |
| 2026-05-06 21:06 | 66.73250 | -43.48389 | 38425 ft | 504 kts | 263° |
| 2026-05-06 21:06 | 66.71706 | -43.65674 | 38418 ft | 504 kts | 262° |
| 2026-05-06 21:07 | 66.70143 | -43.82935 | 38417 ft | 505 kts | 262° |
| 2026-05-06 21:07 | 66.68559 | -44.00198 | 38404 ft | 505 kts | 262° |
| 2026-05-06 21:08 | 66.67215 | -44.14668 | 38398 ft | 505 kts | 262° |
| 2026-05-06 21:08 | 66.65605 | -44.31794 | 38396 ft | 505 kts | 262° |
| 2026-05-06 21:09 | 66.63964 | -44.49029 | 38383 ft | 505 kts | 262° |
| 2026-05-06 21:09 | 66.62305 | -44.66233 | 38379 ft | 505 kts | 262° |
| 2026-05-06 21:10 | 66.60629 | -44.83403 | 38379 ft | 505 kts | 261° |
| 2026-05-06 21:10 | 66.58933 | -45.00551 | 38367 ft | 505 kts | 261° |
| 2026-05-06 21:11 | 66.57219 | -45.17678 | 38347 ft | 505 kts | 261° |
| 2026-05-06 21:11 | 66.55486 | -45.34781 | 38330 ft | 505 kts | 261° |
| 2026-05-06 21:12 | 66.53735 | -45.51858 | 38318 ft | 505 kts | 261° |
| 2026-05-06 21:12 | 66.51965 | -45.68905 | 38305 ft | 505 kts | 261° |
| 2026-05-06 21:13 | 66.50178 | -45.85923 | 38292 ft | 505 kts | 260° |
| 2026-05-06 21:13 | 66.48372 | -46.02921 | 38273 ft | 505 kts | 260° |
| 2026-05-06 21:14 | 66.46547 | -46.19897 | 38264 ft | 505 kts | 259° |
| 2026-05-06 21:14 | 66.44705 | -46.36833 | 38257 ft | 505 kts | 259° |
| 2026-05-06 21:15 | 66.42842 | -46.53767 | 38238 ft | 505 kts | 259° |
| 2026-05-06 21:15 | 66.40974 | -46.70561 | 38228 ft | 505 kts | 259° |
| 2026-05-06 21:16 | 66.39077 | -46.87416 | 38222 ft | 505 kts | 259° |
| 2026-05-06 21:16 | 66.37160 | -47.04275 | 38217 ft | 505 kts | 258° |
| 2026-05-06 21:17 | 66.35225 | -47.21102 | 38210 ft | 505 kts | 258° |
| 2026-05-06 21:17 | 66.33275 | -47.37878 | 38205 ft | 505 kts | 258° |
| 2026-05-06 21:18 | 66.31303 | -47.54658 | 38201 ft | 505 kts | 257° |
| 2026-05-06 21:18 | 66.29315 | -47.71395 | 38201 ft | 505 kts | 257° |
| 2026-05-06 21:19 | 66.27311 | -47.88088 | 38202 ft | 504 kts | 257° |
| 2026-05-06 21:19 | 66.25290 | -48.04746 | 38204 ft | 504 kts | 257° |
| 2026-05-06 21:20 | 66.23253 | -48.21371 | 38199 ft | 504 kts | 256° |
| 2026-05-06 21:20 | 66.21199 | -48.37952 | 38197 ft | 503 kts | 256° |
| 2026-05-06 21:21 | 66.19131 | -48.54480 | 38198 ft | 502 kts | 256° |
| 2026-05-06 21:21 | 66.17046 | -48.70973 | 38199 ft | 502 kts | 255° |
| 2026-05-06 21:22 | 66.14951 | -48.87389 | 38198 ft | 501 kts | 255° |
| 2026-05-06 21:22 | 66.12836 | -49.03789 | 38194 ft | 500 kts | 255° |
| 2026-05-06 21:23 | 66.10710 | -49.20118 | 38195 ft | 500 kts | 255° |
| 2026-05-06 21:23 | 66.08566 | -49.36418 | 38198 ft | 499 kts | 254° |
| 2026-05-06 21:24 | 66.06408 | -49.52670 | 38196 ft | 499 kts | 254° |
| 2026-05-06 21:24 | 66.04232 | -49.68900 | 38199 ft | 499 kts | 253° |
| 2026-05-06 21:25 | 66.02042 | -49.85086 | 38202 ft | 499 kts | 253° |
| 2026-05-06 21:25 | 65.99974 | -50.01212 | 38201 ft | 498 kts | 258° |
| 2026-05-06 21:26 | 65.98788 | -50.18061 | 38190 ft | 497 kts | 263° |
| 2026-05-06 21:26 | 65.97794 | -50.34857 | 38196 ft | 497 kts | 263° |
| 2026-05-06 21:27 | 65.96763 | -50.51532 | 38191 ft | 498 kts | 263° |
| 2026-05-06 21:27 | 65.95677 | -50.68308 | 38193 ft | 499 kts | 262° |
| 2026-05-06 21:28 | 65.94561 | -50.85089 | 38196 ft | 499 kts | 262° |
| 2026-05-06 21:28 | 65.93424 | -51.01893 | 38195 ft | 500 kts | 262° |
| 2026-05-06 21:29 | 65.92270 | -51.18692 | 38195 ft | 501 kts | 261° |
| 2026-05-06 21:29 | 65.91095 | -51.35519 | 38195 ft | 502 kts | 261° |
| 2026-05-06 21:30 | 65.89901 | -51.52339 | 38193 ft | 502 kts | 261° |
| 2026-05-06 21:30 | 65.88685 | -51.69194 | 38198 ft | 503 kts | 261° |
| 2026-05-06 21:31 | 65.87450 | -51.86045 | 38186 ft | 504 kts | 260° |
| 2026-05-06 21:31 | 65.86193 | -52.02916 | 38188 ft | 505 kts | 260° |
| 2026-05-06 21:32 | 65.84917 | -52.19789 | 38187 ft | 506 kts | 259° |
| 2026-05-06 21:32 | 65.82963 | -52.45124 | 38179 ft | 507 kts | 259° |
| 2026-05-06 21:33 | 65.81634 | -52.62031 | 38171 ft | 508 kts | 259° |
| 2026-05-06 21:33 | 65.80284 | -52.78955 | 38170 ft | 509 kts | 259° |
| 2026-05-06 21:34 | 65.78914 | -52.95872 | 38161 ft | 510 kts | 258° |
| 2026-05-06 21:34 | 65.77522 | -53.12812 | 38168 ft | 510 kts | 258° |
| 2026-05-06 21:35 | 65.76109 | -53.29766 | 38161 ft | 511 kts | 258° |
| 2026-05-06 21:35 | 65.74676 | -53.46714 | 38161 ft | 512 kts | 257° |
| 2026-05-06 21:36 | 65.73223 | -53.63662 | 38164 ft | 512 kts | 257° |
| 2026-05-06 21:36 | 65.71748 | -53.80613 | 38166 ft | 513 kts | 257° |
| 2026-05-06 21:37 | 65.70254 | -53.97564 | 38168 ft | 514 kts | 257° |
| 2026-05-06 21:37 | 65.68738 | -54.14523 | 38164 ft | 514 kts | 256° |
| 2026-05-06 21:38 | 65.67211 | -54.31370 | 38167 ft | 515 kts | 256° |
| 2026-05-06 21:38 | 65.65653 | -54.48336 | 38165 ft | 516 kts | 256° |
| 2026-05-06 21:39 | 65.64075 | -54.65299 | 38165 ft | 517 kts | 256° |
| 2026-05-06 21:39 | 65.62475 | -54.82272 | 38165 ft | 517 kts | 255° |
| 2026-05-06 21:40 | 65.60855 | -54.99236 | 38169 ft | 518 kts | 255° |
| 2026-05-06 21:40 | 65.59213 | -55.16201 | 38170 ft | 519 kts | 255° |
| 2026-05-06 21:41 | 65.57549 | -55.33189 | 38171 ft | 520 kts | 255° |
| 2026-05-06 21:41 | 65.55864 | -55.50174 | 38179 ft | 520 kts | 255° |
| 2026-05-06 21:42 | 65.54157 | -55.67159 | 38176 ft | 521 kts | 254° |
| 2026-05-06 21:42 | 65.52427 | -55.84168 | 38184 ft | 522 kts | 254° |
| 2026-05-06 21:43 | 65.50676 | -56.01169 | 38188 ft | 523 kts | 254° |
| 2026-05-06 21:43 | 65.48903 | -56.18183 | 38190 ft | 524 kts | 253° |
| 2026-05-06 21:44 | 65.47107 | -56.35201 | 38189 ft | 525 kts | 253° |
| 2026-05-06 21:44 | 65.45293 | -56.52196 | 38186 ft | 525 kts | 253° |
| 2026-05-06 21:45 | 65.43459 | -56.69170 | 38184 ft | 525 kts | 253° |
| 2026-05-06 21:45 | 65.41619 | -56.86013 | 38189 ft | 524 kts | 252° |
| 2026-05-06 21:46 | 65.39737 | -57.03031 | 38183 ft | 524 kts | 252° |
| 2026-05-06 21:46 | 65.37863 | -57.19785 | 38179 ft | 523 kts | 252° |
| 2026-05-06 21:47 | 65.35949 | -57.36699 | 38184 ft | 522 kts | 252° |
| 2026-05-06 21:47 | 65.34043 | -57.53366 | 38169 ft | 522 kts | 251° |
| 2026-05-06 21:48 | 65.32107 | -57.70095 | 38175 ft | 521 kts | 251° |
| 2026-05-06 21:48 | 65.30157 | -57.86775 | 38167 ft | 521 kts | 251° |
| 2026-05-06 21:49 | 65.28188 | -58.03424 | 38160 ft | 520 kts | 251° |
| 2026-05-06 21:49 | 65.26201 | -58.20045 | 38159 ft | 520 kts | 251° |
| 2026-05-06 21:50 | 65.24199 | -58.36616 | 38145 ft | 520 kts | 250° |
| 2026-05-06 21:50 | 65.22177 | -58.53178 | 38140 ft | 520 kts | 250° |
| 2026-05-06 21:51 | 65.20136 | -58.69720 | 38138 ft | 520 kts | 250° |
| 2026-05-06 21:51 | 65.18077 | -58.86233 | 38125 ft | 521 kts | 250° |
| 2026-05-06 21:52 | 65.15996 | -59.02756 | 38118 ft | 521 kts | 250° |
| 2026-05-06 21:52 | 65.13894 | -59.19273 | 38114 ft | 522 kts | 250° |
| 2026-05-06 21:53 | 65.11771 | -59.35783 | 38106 ft | 523 kts | 250° |
| 2026-05-06 21:53 | 65.09625 | -59.52298 | 38102 ft | 524 kts | 249° |
| 2026-05-06 21:54 | 65.07456 | -59.68821 | 38091 ft | 525 kts | 249° |
| 2026-05-06 21:54 | 65.05266 | -59.85337 | 38090 ft | 526 kts | 249° |
| 2026-05-06 21:55 | 65.03431 | -59.99078 | 38070 ft | 526 kts | 249° |
| 2026-05-06 21:55 | 65.01187 | -60.15569 | 38070 ft | 527 kts | 249° |
| 2026-05-06 21:56 | 64.98901 | -60.32044 | 38063 ft | 528 kts | 248° |
| 2026-05-06 21:56 | 64.96591 | -60.48519 | 38055 ft | 528 kts | 248° |
| 2026-05-06 21:57 | 64.94263 | -60.64985 | 38047 ft | 529 kts | 248° |
| 2026-05-06 21:57 | 64.91919 | -60.81429 | 38045 ft | 530 kts | 248° |
| 2026-05-06 21:58 | 64.89552 | -60.97881 | 38039 ft | 530 kts | 248° |
| 2026-05-06 21:58 | 64.87166 | -61.14303 | 38031 ft | 531 kts | 248° |
| 2026-05-06 21:59 | 64.84755 | -61.30742 | 38013 ft | 531 kts | 248° |
| 2026-05-06 21:59 | 64.82330 | -61.47124 | 38006 ft | 532 kts | 247° |
| 2026-05-06 22:00 | 64.79883 | -61.63501 | 37995 ft | 532 kts | 247° |
| 2026-05-06 22:00 | 64.77414 | -61.79876 | 37983 ft | 532 kts | 247° |
| 2026-05-06 22:01 | 64.74927 | -61.96222 | 37975 ft | 533 kts | 247° |
| 2026-05-06 22:01 | 64.72438 | -62.12440 | 37968 ft | 533 kts | 246° |
| 2026-05-06 22:02 | 64.69912 | -62.28744 | 37966 ft | 533 kts | 246° |
| 2026-05-06 22:02 | 64.67370 | -62.45015 | 37952 ft | 533 kts | 246° |
| 2026-05-06 22:03 | 64.64807 | -62.61263 | 37950 ft | 533 kts | 246° |
| 2026-05-06 22:03 | 64.62227 | -62.77485 | 37928 ft | 533 kts | 246° |
| 2026-05-06 22:04 | 64.59631 | -62.93660 | 37928 ft | 533 kts | 246° |
| 2026-05-06 22:04 | 64.57015 | -63.09821 | 37916 ft | 533 kts | 246° |
| 2026-05-06 22:05 | 64.54384 | -63.25936 | 37910 ft | 533 kts | 245° |
| 2026-05-06 22:05 | 64.51736 | -63.42008 | 37905 ft | 533 kts | 245° |
| 2026-05-06 22:06 | 64.49072 | -63.58047 | 37900 ft | 532 kts | 245° |
| 2026-05-06 22:06 | 64.46393 | -63.74039 | 37886 ft | 532 kts | 245° |
| 2026-05-06 22:07 | 64.43702 | -63.89973 | 37885 ft | 531 kts | 245° |
| 2026-05-06 22:07 | 64.40995 | -64.05860 | 37879 ft | 530 kts | 245° |
| 2026-05-06 22:08 | 64.38275 | -64.21698 | 37871 ft | 530 kts | 245° |
| 2026-05-06 22:08 | 64.35536 | -64.37511 | 37862 ft | 530 kts | 245° |
| 2026-05-06 22:09 | 64.32787 | -64.53257 | 37868 ft | 528 kts | 245° |
| 2026-05-06 22:09 | 64.30027 | -64.68937 | 37855 ft | 528 kts | 244° |
| 2026-05-06 22:10 | 64.27256 | -64.84557 | 37854 ft | 527 kts | 244° |
| 2026-05-06 22:10 | 64.24467 | -65.00148 | 37851 ft | 527 kts | 244° |
| 2026-05-06 22:11 | 64.21661 | -65.15704 | 37849 ft | 526 kts | 244° |
| 2026-05-06 22:11 | 64.18863 | -65.31104 | 37845 ft | 526 kts | 244° |
| 2026-05-06 22:12 | 64.16026 | -65.46593 | 37842 ft | 527 kts | 244° |
| 2026-05-06 22:12 | 64.13172 | -65.62049 | 37813 ft | 527 kts | 244° |
| 2026-05-06 22:13 | 64.10295 | -65.77516 | 37805 ft | 528 kts | 243° |
| 2026-05-06 22:13 | 64.07400 | -65.92955 | 37784 ft | 529 kts | 243° |
| 2026-05-06 22:14 | 64.04482 | -66.08401 | 37779 ft | 530 kts | 243° |
| 2026-05-06 22:14 | 64.01543 | -66.23833 | 37765 ft | 530 kts | 243° |
| 2026-05-06 22:15 | 63.98588 | -66.39233 | 37769 ft | 531 kts | 243° |
| 2026-05-06 22:15 | 63.95612 | -66.54623 | 37753 ft | 531 kts | 243° |
| 2026-05-06 22:16 | 63.92621 | -66.69969 | 37752 ft | 531 kts | 243° |
| 2026-05-06 22:16 | 63.89612 | -66.85302 | 37741 ft | 531 kts | 242° |
| 2026-05-06 22:17 | 63.86787 | -67.00821 | 37742 ft | 534 kts | 248° |
| 2026-05-06 22:17 | 63.85004 | -67.17120 | 37717 ft | 538 kts | 256° |
| 2026-05-06 22:18 | 63.83530 | -67.33834 | 37728 ft | 537 kts | 256° |
| 2026-05-06 22:18 | 63.82038 | -67.50291 | 37711 ft | 537 kts | 255° |
| 2026-05-06 22:19 | 63.80477 | -67.66815 | 37713 ft | 537 kts | 255° |
| 2026-05-06 22:19 | 63.78880 | -67.83316 | 37705 ft | 537 kts | 255° |
| 2026-05-06 22:20 | 63.77264 | -67.99806 | 37714 ft | 537 kts | 255° |
| 2026-05-06 22:20 | 63.75631 | -68.16277 | 37700 ft | 537 kts | 254° |
| 2026-05-06 22:21 | 63.73981 | -68.32746 | 37705 ft | 537 kts | 254° |
| 2026-05-06 22:21 | 63.72313 | -68.49191 | 37702 ft | 538 kts | 254° |
| 2026-05-06 22:22 | 63.70625 | -68.65626 | 37706 ft | 538 kts | 254° |
| 2026-05-06 22:22 | 63.68917 | -68.82043 | 37702 ft | 538 kts | 254° |
| 2026-05-06 22:23 | 63.67189 | -68.98454 | 37695 ft | 538 kts | 254° |
| 2026-05-06 22:23 | 63.65443 | -69.14841 | 37686 ft | 538 kts | 253° |
| 2026-05-06 22:24 | 63.63678 | -69.31212 | 37681 ft | 538 kts | 253° |
| 2026-05-06 22:24 | 63.61897 | -69.47538 | 37666 ft | 537 kts | 253° |
| 2026-05-06 22:25 | 63.60100 | -69.63825 | 37666 ft | 537 kts | 253° |
| 2026-05-06 22:25 | 63.58284 | -69.80090 | 37643 ft | 536 kts | 253° |
| 2026-05-06 22:26 | 63.56466 | -69.96196 | 37646 ft | 536 kts | 253° |
| 2026-05-06 22:26 | 63.54620 | -70.12372 | 37626 ft | 535 kts | 253° |
| 2026-05-06 22:27 | 63.52756 | -70.28516 | 37629 ft | 534 kts | 253° |
| 2026-05-06 22:27 | 63.50879 | -70.44593 | 37614 ft | 534 kts | 253° |
| 2026-05-06 22:28 | 63.48985 | -70.60651 | 37614 ft | 533 kts | 253° |
| 2026-05-06 22:28 | 63.47074 | -70.76668 | 37605 ft | 533 kts | 252° |
| 2026-05-06 22:29 | 63.45147 | -70.92658 | 37600 ft | 532 kts | 252° |
| 2026-05-06 22:29 | 63.43203 | -71.08621 | 37591 ft | 532 kts | 252° |
| 2026-05-06 22:30 | 63.41240 | -71.24565 | 37589 ft | 532 kts | 252° |
| 2026-05-06 22:30 | 63.39258 | -71.40494 | 37580 ft | 533 kts | 252° |
| 2026-05-06 22:31 | 63.37261 | -71.56391 | 37587 ft | 533 kts | 252° |
| 2026-05-06 22:31 | 63.35243 | -71.72284 | 37579 ft | 533 kts | 252° |
| 2026-05-06 22:32 | 63.33208 | -71.88151 | 37582 ft | 533 kts | 252° |
| 2026-05-06 22:32 | 63.31151 | -72.04028 | 37572 ft | 534 kts | 251° |
| 2026-05-06 22:33 | 63.29078 | -72.19872 | 37577 ft | 534 kts | 251° |
| 2026-05-06 22:33 | 63.27001 | -72.35588 | 37567 ft | 534 kts | 251° |
| 2026-05-06 22:34 | 63.24892 | -72.51401 | 37570 ft | 534 kts | 251° |
| 2026-05-06 22:34 | 63.22763 | -72.67197 | 37563 ft | 535 kts | 251° |
| 2026-05-06 22:35 | 63.20617 | -72.82971 | 37563 ft | 535 kts | 251° |
| 2026-05-06 22:35 | 63.18448 | -72.98762 | 37552 ft | 535 kts | 250° |
| 2026-05-06 22:36 | 63.16263 | -73.14518 | 37555 ft | 536 kts | 250° |
| 2026-05-06 22:36 | 63.14056 | -73.30284 | 37547 ft | 537 kts | 250° |
| 2026-05-06 22:37 | 63.11828 | -73.46047 | 37545 ft | 538 kts | 250° |
| 2026-05-06 22:37 | 63.09579 | -73.61815 | 37531 ft | 539 kts | 250° |
| 2026-05-06 22:38 | 63.07309 | -73.77583 | 37535 ft | 539 kts | 250° |
| 2026-05-06 22:38 | 63.05017 | -73.93355 | 37529 ft | 540 kts | 249° |
| 2026-05-06 22:39 | 63.02705 | -74.09119 | 37530 ft | 541 kts | 249° |
| 2026-05-06 22:39 | 63.00372 | -74.24876 | 37516 ft | 541 kts | 249° |
| 2026-05-06 22:40 | 62.98026 | -74.40588 | 37516 ft | 540 kts | 249° |
| 2026-05-06 22:40 | 62.95667 | -74.56246 | 37509 ft | 539 kts | 249° |
| 2026-05-06 22:41 | 62.92111 | -74.79583 | 37498 ft | 536 kts | 249° |
| 2026-05-06 22:42 | 62.89730 | -74.95034 | 37682 ft | 535 kts | 249° |
| 2026-05-06 22:42 | 62.87343 | -75.10384 | 37532 ft | 536 kts | 249° |
| 2026-05-06 22:43 | 62.84923 | -75.25820 | 37494 ft | 535 kts | 249° |
| 2026-05-06 22:43 | 62.82494 | -75.41180 | 37482 ft | 534 kts | 249° |
| 2026-05-06 22:44 | 62.80052 | -75.56497 | 37473 ft | 533 kts | 249° |
| 2026-05-06 22:44 | 62.77595 | -75.71773 | 37473 ft | 533 kts | 249° |
| 2026-05-06 22:45 | 62.75119 | -75.87044 | 37467 ft | 534 kts | 249° |
| 2026-05-06 22:45 | 62.72626 | -76.02283 | 37459 ft | 534 kts | 249° |
| 2026-05-06 22:46 | 62.70113 | -76.17523 | 37453 ft | 534 kts | 249° |
| 2026-05-06 22:46 | 62.68012 | -76.30171 | 37446 ft | 534 kts | 249° |
| 2026-05-06 22:47 | 62.65468 | -76.45371 | 37438 ft | 535 kts | 249° |
| 2026-05-06 22:47 | 62.62908 | -76.60538 | 37442 ft | 534 kts | 249° |
| 2026-05-06 22:48 | 62.60333 | -76.75674 | 37436 ft | 534 kts | 248° |
| 2026-05-06 22:48 | 62.57741 | -76.90789 | 37432 ft | 534 kts | 248° |
| 2026-05-06 22:49 | 62.55132 | -77.05876 | 37426 ft | 534 kts | 248° |
| 2026-05-06 22:49 | 62.52507 | -77.20937 | 37420 ft | 535 kts | 248° |
| 2026-05-06 22:50 | 62.49866 | -77.35976 | 37420 ft | 534 kts | 248° |
| 2026-05-06 22:50 | 62.47209 | -77.50982 | 37411 ft | 534 kts | 248° |
| 2026-05-06 22:51 | 62.44535 | -77.65971 | 37415 ft | 534 kts | 248° |
| 2026-05-06 22:51 | 62.41848 | -77.80912 | 37403 ft | 534 kts | 248° |
| 2026-05-06 22:52 | 62.39145 | -77.95822 | 37398 ft | 534 kts | 248° |
| 2026-05-06 22:52 | 62.36447 | -78.10598 | 37396 ft | 533 kts | 248° |
| 2026-05-06 22:53 | 62.33696 | -78.25546 | 37400 ft | 533 kts | 248° |
| 2026-05-06 22:53 | 62.30969 | -78.40254 | 37392 ft | 533 kts | 248° |
| 2026-05-06 22:54 | 62.28208 | -78.55032 | 37392 ft | 533 kts | 248° |
| 2026-05-06 22:54 | 62.25432 | -78.69780 | 37389 ft | 533 kts | 247° |
| 2026-05-06 22:55 | 62.22642 | -78.84493 | 37385 ft | 533 kts | 247° |
| 2026-05-06 22:55 | 62.19833 | -78.99196 | 37386 ft | 533 kts | 247° |
| 2026-05-06 22:56 | 62.17009 | -79.13866 | 37384 ft | 533 kts | 247° |
| 2026-05-06 22:56 | 62.14167 | -79.28524 | 37382 ft | 533 kts | 247° |
| 2026-05-06 22:57 | 62.11309 | -79.43158 | 37380 ft | 534 kts | 247° |
| 2026-05-06 22:57 | 62.08431 | -79.57781 | 37379 ft | 534 kts | 246° |
| 2026-05-06 22:58 | 62.05541 | -79.72363 | 37378 ft | 534 kts | 246° |
| 2026-05-06 22:58 | 62.02628 | -79.86947 | 37373 ft | 535 kts | 246° |
| 2026-05-06 22:59 | 61.99700 | -80.01388 | 37372 ft | 534 kts | 244° |
| 2026-05-06 22:59 | 61.96348 | -80.15602 | 37378 ft | 534 kts | 242° |
| 2026-05-06 23:00 | 61.92929 | -80.29623 | 37370 ft | 535 kts | 242° |
| 2026-05-06 23:00 | 61.89504 | -80.43626 | 37370 ft | 535 kts | 242° |
| 2026-05-06 23:01 | 61.86079 | -80.57634 | 37369 ft | 535 kts | 242° |
| 2026-05-06 23:01 | 61.82644 | -80.71632 | 37370 ft | 536 kts | 242° |
| 2026-05-06 23:02 | 61.79195 | -80.85594 | 37367 ft | 536 kts | 242° |
| 2026-05-06 23:02 | 61.75753 | -80.99436 | 37371 ft | 536 kts | 242° |
| 2026-05-06 23:03 | 61.72274 | -81.13331 | 37374 ft | 536 kts | 242° |
| 2026-05-06 23:03 | 61.68774 | -81.27223 | 37371 ft | 536 kts | 241° |
| 2026-05-06 23:04 | 61.65264 | -81.41071 | 37369 ft | 536 kts | 241° |
| 2026-05-06 23:04 | 61.61738 | -81.54892 | 37374 ft | 536 kts | 241° |
| 2026-05-06 23:05 | 61.58199 | -81.68682 | 37374 ft | 536 kts | 241° |
| 2026-05-06 23:05 | 61.54648 | -81.82430 | 37379 ft | 536 kts | 241° |
| 2026-05-06 23:06 | 61.51085 | -81.96144 | 37379 ft | 536 kts | 241° |
| 2026-05-06 23:06 | 61.47510 | -82.09814 | 37383 ft | 535 kts | 241° |
| 2026-05-06 23:07 | 61.43923 | -82.23452 | 37392 ft | 535 kts | 240° |
| 2026-05-06 23:07 | 61.40321 | -82.37061 | 37396 ft | 535 kts | 240° |
| 2026-05-06 23:08 | 61.36710 | -82.50620 | 37399 ft | 535 kts | 240° |
| 2026-05-06 23:08 | 61.33083 | -82.64161 | 37400 ft | 535 kts | 240° |
| 2026-05-06 23:09 | 61.29446 | -82.77652 | 37403 ft | 535 kts | 240° |
| 2026-05-06 23:09 | 61.25797 | -82.91113 | 37414 ft | 534 kts | 240° |
| 2026-05-06 23:10 | 61.22158 | -83.04455 | 37442 ft | 534 kts | 240° |
| 2026-05-06 23:10 | 61.18486 | -83.17839 | 37443 ft | 534 kts | 240° |
| 2026-05-06 23:11 | 61.14800 | -83.31195 | 37449 ft | 534 kts | 240° |
| 2026-05-06 23:11 | 61.11097 | -83.44534 | 37454 ft | 534 kts | 240° |
| 2026-05-06 23:12 | 61.07386 | -83.57822 | 37460 ft | 534 kts | 240° |
| 2026-05-06 23:12 | 61.03657 | -83.71095 | 37464 ft | 534 kts | 239° |
| 2026-05-06 23:13 | 60.99919 | -83.84326 | 37473 ft | 534 kts | 239° |
| 2026-05-06 23:13 | 60.96163 | -83.97540 | 37477 ft | 534 kts | 239° |
| 2026-05-06 23:14 | 60.92395 | -84.10724 | 37481 ft | 534 kts | 239° |
| 2026-05-06 23:14 | 60.88616 | -84.23867 | 37482 ft | 535 kts | 239° |
| 2026-05-06 23:15 | 60.84819 | -84.36997 | 37491 ft | 535 kts | 239° |
| 2026-05-06 23:15 | 60.81005 | -84.50113 | 37497 ft | 536 kts | 239° |
| 2026-05-06 23:16 | 60.77174 | -84.63211 | 37502 ft | 536 kts | 239° |
| 2026-05-06 23:16 | 60.73328 | -84.76286 | 37507 ft | 536 kts | 239° |
| 2026-05-06 23:17 | 60.69473 | -84.89316 | 37513 ft | 536 kts | 239° |
| 2026-05-06 23:17 | 60.65640 | -85.02197 | 37516 ft | 534 kts | 239° |
| 2026-05-06 23:18 | 60.61772 | -85.15125 | 37525 ft | 534 kts | 239° |
| 2026-05-06 23:18 | 60.57895 | -85.28010 | 37531 ft | 533 kts | 239° |
| 2026-05-06 23:19 | 60.54009 | -85.40854 | 37534 ft | 534 kts | 239° |
| 2026-05-06 23:19 | 60.50109 | -85.53673 | 37541 ft | 534 kts | 238° |
| 2026-05-06 23:20 | 60.46194 | -85.66471 | 37548 ft | 534 kts | 238° |
| 2026-05-06 23:20 | 60.42268 | -85.79232 | 37553 ft | 534 kts | 238° |
| 2026-05-06 23:21 | 60.38330 | -85.91960 | 37556 ft | 534 kts | 238° |
| 2026-05-06 23:21 | 60.34388 | -86.04632 | 37563 ft | 533 kts | 238° |
| 2026-05-06 23:22 | 60.30445 | -86.17240 | 37561 ft | 527 kts | 238° |
| 2026-05-06 23:22 | 60.26539 | -86.29661 | 37575 ft | 525 kts | 238° |
| 2026-05-06 23:23 | 60.22607 | -86.42103 | 37581 ft | 527 kts | 238° |
| 2026-05-06 23:23 | 60.18680 | -86.54457 | 37582 ft | 524 kts | 238° |
| 2026-05-06 23:24 | 60.14753 | -86.66748 | 37597 ft | 528 kts | 238° |
| 2026-05-06 23:24 | 60.10788 | -86.79092 | 37594 ft | 524 kts | 238° |
| 2026-05-06 23:25 | 60.06833 | -86.91337 | 37605 ft | 524 kts | 238° |
| 2026-05-06 23:25 | 60.02849 | -87.03611 | 37614 ft | 527 kts | 238° |
| 2026-05-06 23:26 | 59.98851 | -87.15865 | 37618 ft | 525 kts | 238° |
| 2026-05-06 23:26 | 59.94841 | -87.28086 | 37637 ft | 527 kts | 238° |
| 2026-05-06 23:27 | 59.90813 | -87.40300 | 37634 ft | 526 kts | 238° |
| 2026-05-06 23:27 | 59.86792 | -87.52431 | 37640 ft | 525 kts | 237° |
| 2026-05-06 23:28 | 59.82744 | -87.64578 | 37655 ft | 528 kts | 237° |
| 2026-05-06 23:28 | 59.78689 | -87.76683 | 37646 ft | 522 kts | 237° |
| 2026-05-06 23:29 | 59.74639 | -87.88711 | 37672 ft | 526 kts | 237° |
| 2026-05-06 23:29 | 59.70553 | -88.00787 | 37662 ft | 527 kts | 237° |
| 2026-05-06 23:30 | 59.66462 | -88.12812 | 37679 ft | 527 kts | 237° |
| 2026-05-06 23:30 | 59.62352 | -88.24832 | 37680 ft | 527 kts | 237° |
| 2026-05-06 23:31 | 59.58236 | -88.36806 | 37692 ft | 527 kts | 237° |
| 2026-05-06 23:31 | 59.54108 | -88.48757 | 37694 ft | 527 kts | 237° |
| 2026-05-06 23:32 | 59.49973 | -88.60667 | 37701 ft | 526 kts | 237° |
| 2026-05-06 23:32 | 59.45861 | -88.72452 | 37712 ft | 527 kts | 237° |
| 2026-05-06 23:33 | 59.41678 | -88.84380 | 37706 ft | 526 kts | 236° |
| 2026-05-06 23:33 | 59.37542 | -88.96110 | 37722 ft | 527 kts | 236° |
| 2026-05-06 23:34 | 59.33374 | -89.07879 | 37723 ft | 524 kts | 236° |
| 2026-05-06 23:34 | 59.29195 | -89.19615 | 37737 ft | 526 kts | 236° |
| 2026-05-06 23:35 | 59.24994 | -89.31357 | 37739 ft | 526 kts | 236° |
| 2026-05-06 23:35 | 59.20788 | -89.43054 | 37752 ft | 527 kts | 236° |
| 2026-05-06 23:36 | 59.16562 | -89.54747 | 37744 ft | 525 kts | 236° |
| 2026-05-06 23:36 | 59.13061 | -89.64388 | 37753 ft | 525 kts | 236° |
| 2026-05-06 23:37 | 59.08836 | -89.75974 | 37768 ft | 526 kts | 236° |
| 2026-05-06 23:37 | 59.04595 | -89.87537 | 37765 ft | 524 kts | 236° |
| 2026-05-06 23:38 | 59.00352 | -89.99065 | 37779 ft | 525 kts | 236° |
| 2026-05-06 23:38 | 58.96216 | -90.10689 | 37786 ft | 524 kts | 238° |
| 2026-05-06 23:39 | 58.92209 | -90.22458 | 37799 ft | 524 kts | 238° |
| 2026-05-06 23:39 | 58.88177 | -90.34235 | 37794 ft | 524 kts | 238° |
| 2026-05-06 23:40 | 58.84137 | -90.45856 | 37811 ft | 522 kts | 237° |
| 2026-05-06 23:40 | 58.80049 | -90.57510 | 37819 ft | 526 kts | 237° |
| 2026-05-06 23:41 | 58.75962 | -90.69097 | 37813 ft | 518 kts | 237° |
| 2026-05-06 23:41 | 58.71881 | -90.80614 | 37832 ft | 523 kts | 237° |
| 2026-05-06 23:42 | 58.67771 | -90.92164 | 37821 ft | 521 kts | 237° |
| 2026-05-06 23:42 | 58.63665 | -91.03645 | 37843 ft | 523 kts | 237° |
| 2026-05-06 23:43 | 58.59533 | -91.15149 | 37842 ft | 523 kts | 237° |
| 2026-05-06 23:43 | 58.55414 | -91.26558 | 37858 ft | 522 kts | 237° |
| 2026-05-06 23:44 | 58.51259 | -91.38014 | 37860 ft | 524 kts | 237° |
| 2026-05-06 23:44 | 58.47146 | -91.49296 | 37865 ft | 521 kts | 237° |
| 2026-05-06 23:45 | 58.42976 | -91.60684 | 37875 ft | 525 kts | 237° |
| 2026-05-06 23:45 | 58.38808 | -91.72004 | 37870 ft | 520 kts | 237° |
| 2026-05-06 23:46 | 58.34626 | -91.83310 | 37878 ft | 523 kts | 237° |
| 2026-05-06 23:46 | 58.30454 | -91.94543 | 37887 ft | 520 kts | 236° |
| 2026-05-06 23:47 | 58.26257 | -92.05790 | 37888 ft | 521 kts | 236° |
| 2026-05-06 23:47 | 58.22070 | -92.16950 | 37920 ft | 520 kts | 236° |
| 2026-05-06 23:48 | 58.17848 | -92.28161 | 37901 ft | 523 kts | 236° |
| 2026-05-06 23:48 | 58.13625 | -92.39311 | 37891 ft | 516 kts | 236° |
| 2026-05-06 23:49 | 58.09422 | -92.50364 | 37906 ft | 520 kts | 236° |
| 2026-05-06 23:49 | 58.05181 | -92.61464 | 37926 ft | 521 kts | 236° |
| 2026-05-06 23:50 | 58.00942 | -92.72504 | 37922 ft | 518 kts | 236° |
| 2026-05-06 23:50 | 57.94574 | -92.88997 | 37936 ft | 519 kts | 235° |
| 2026-05-06 23:51 | 57.90317 | -92.99962 | 37924 ft | 518 kts | 235° |
| 2026-05-06 23:51 | 57.86051 | -93.10896 | 37930 ft | 519 kts | 235° |
| 2026-05-06 23:52 | 57.81793 | -93.21761 | 37941 ft | 521 kts | 235° |
| 2026-05-06 23:52 | 57.77491 | -93.32687 | 37941 ft | 521 kts | 235° |
| 2026-05-06 23:53 | 57.73177 | -93.43595 | 37948 ft | 522 kts | 235° |
| 2026-05-06 23:53 | 57.68831 | -93.54536 | 37962 ft | 526 kts | 235° |
| 2026-05-06 23:54 | 57.64450 | -93.65513 | 37959 ft | 528 kts | 234° |
| 2026-05-06 23:54 | 57.60042 | -93.76505 | 37950 ft | 530 kts | 234° |
| 2026-05-06 23:55 | 57.55614 | -93.87497 | 37958 ft | 531 kts | 234° |
| 2026-05-06 23:55 | 57.51173 | -93.98471 | 37962 ft | 530 kts | 234° |
| 2026-05-06 23:56 | 57.46729 | -94.09402 | 37968 ft | 529 kts | 234° |
| 2026-05-06 23:56 | 57.42286 | -94.20283 | 37965 ft | 528 kts | 234° |
| 2026-05-06 23:57 | 57.37847 | -94.31103 | 37964 ft | 526 kts | 234° |
| 2026-05-06 23:57 | 57.33411 | -94.41868 | 37972 ft | 525 kts | 234° |
| 2026-05-06 23:58 | 57.28976 | -94.52582 | 37966 ft | 524 kts | 234° |
| 2026-05-06 23:58 | 57.24538 | -94.63259 | 37976 ft | 524 kts | 234° |
| 2026-05-06 23:59 | 57.20094 | -94.73901 | 37978 ft | 523 kts | 234° |
| 2026-05-06 23:59 | 57.15639 | -94.84520 | 37972 ft | 524 kts | 233° |
| 2026-05-07 00:00 | 57.11176 | -94.95114 | 37977 ft | 524 kts | 233° |
| 2026-05-07 00:00 | 57.06700 | -95.05689 | 37978 ft | 524 kts | 233° |
| 2026-05-07 00:01 | 57.02209 | -95.16256 | 37981 ft | 525 kts | 233° |
| 2026-05-07 00:01 | 56.97707 | -95.26800 | 37982 ft | 525 kts | 233° |
| 2026-05-07 00:02 | 56.93230 | -95.37241 | 37978 ft | 526 kts | 233° |
| 2026-05-07 00:02 | 56.88665 | -95.47841 | 37984 ft | 526 kts | 233° |
| 2026-05-07 00:03 | 56.84123 | -95.58340 | 37982 ft | 526 kts | 233° |
| 2026-05-07 00:03 | 56.79605 | -95.68740 | 37981 ft | 526 kts | 233° |
| 2026-05-07 00:04 | 56.75053 | -95.79173 | 37979 ft | 526 kts | 233° |
| 2026-05-07 00:04 | 56.70484 | -95.89598 | 37980 ft | 526 kts | 233° |
| 2026-05-07 00:05 | 56.65910 | -95.99990 | 37983 ft | 526 kts | 233° |
| 2026-05-07 00:05 | 56.61330 | -96.10353 | 37987 ft | 526 kts | 233° |
| 2026-05-07 00:06 | 56.56742 | -96.20686 | 37986 ft | 526 kts | 233° |
| 2026-05-07 00:06 | 56.52141 | -96.31006 | 37988 ft | 526 kts | 233° |
| 2026-05-07 00:07 | 56.47534 | -96.41294 | 37992 ft | 526 kts | 232° |
| 2026-05-07 00:07 | 56.42920 | -96.51554 | 37997 ft | 526 kts | 232° |
| 2026-05-07 00:08 | 56.38293 | -96.61800 | 37997 ft | 526 kts | 232° |
| 2026-05-07 00:08 | 56.33662 | -96.72011 | 37995 ft | 526 kts | 232° |
| 2026-05-07 00:09 | 56.29019 | -96.82204 | 38002 ft | 526 kts | 232° |
| 2026-05-07 00:09 | 56.24369 | -96.92370 | 37999 ft | 526 kts | 232° |
| 2026-05-07 00:10 | 56.19714 | -97.02505 | 38005 ft | 526 kts | 232° |
| 2026-05-07 00:10 | 56.15045 | -97.12626 | 38008 ft | 527 kts | 232° |
| 2026-05-07 00:11 | 56.10364 | -97.22732 | 38004 ft | 527 kts | 232° |
| 2026-05-07 00:11 | 56.05670 | -97.32822 | 38006 ft | 527 kts | 232° |
| 2026-05-07 00:12 | 56.01003 | -97.42813 | 38006 ft | 527 kts | 232° |
| 2026-05-07 00:12 | 55.96297 | -97.52846 | 37990 ft | 527 kts | 232° |
| 2026-05-07 00:13 | 55.91573 | -97.62871 | 37992 ft | 527 kts | 232° |
| 2026-05-07 00:13 | 55.86852 | -97.72850 | 37965 ft | 528 kts | 232° |
| 2026-05-07 00:14 | 55.82109 | -97.82836 | 37978 ft | 527 kts | 232° |
| 2026-05-07 00:14 | 55.77386 | -97.92804 | 37975 ft | 527 kts | 232° |
| 2026-05-07 00:15 | 55.72701 | -98.02807 | 37971 ft | 527 kts | 232° |
| 2026-05-07 00:15 | 55.68005 | -98.12805 | 37989 ft | 527 kts | 232° |
| 2026-05-07 00:16 | 55.63295 | -98.22768 | 37999 ft | 528 kts | 232° |
| 2026-05-07 00:16 | 55.58570 | -98.32702 | 38007 ft | 528 kts | 232° |
| 2026-05-07 00:17 | 55.53838 | -98.42608 | 38008 ft | 528 kts | 232° |
| 2026-05-07 00:17 | 55.49095 | -98.52497 | 38010 ft | 528 kts | 232° |
| 2026-05-07 00:18 | 55.44346 | -98.62361 | 38011 ft | 528 kts | 232° |
| 2026-05-07 00:18 | 55.39583 | -98.72213 | 38011 ft | 528 kts | 232° |
| 2026-05-07 00:19 | 55.34825 | -98.82014 | 38225 ft | 526 kts | 232° |
| 2026-05-07 00:19 | 55.32448 | -98.86897 | 38351 ft | 525 kts | 232° |
| 2026-05-07 00:19 | 55.30104 | -98.91701 | 38468 ft | 525 kts | 232° |
| 2026-05-07 00:20 | 55.27730 | -98.96559 | 38601 ft | 524 kts | 232° |
| 2026-05-07 00:20 | 55.25359 | -99.01402 | 38722 ft | 524 kts | 232° |
| 2026-05-07 00:20 | 55.20623 | -99.11042 | 38931 ft | 523 kts | 232° |
| 2026-05-07 00:21 | 55.15870 | -99.20679 | 39121 ft | 521 kts | 232° |
| 2026-05-07 00:21 | 55.13498 | -99.25474 | 39236 ft | 521 kts | 232° |
| 2026-05-07 00:21 | 55.11126 | -99.30259 | 39333 ft | 520 kts | 232° |
| 2026-05-07 00:22 | 55.06386 | -99.39794 | 39552 ft | 519 kts | 232° |
| 2026-05-07 00:22 | 55.01649 | -99.49286 | 39755 ft | 518 kts | 232° |
| 2026-05-07 00:23 | 54.99282 | -99.54014 | 39864 ft | 518 kts | 232° |
| 2026-05-07 00:23 | 54.96909 | -99.58746 | 39923 ft | 519 kts | 232° |
| 2026-05-07 00:23 | 54.92151 | -99.68208 | 39998 ft | 520 kts | 231° |
| 2026-05-07 00:24 | 54.87364 | -99.77688 | 40007 ft | 523 kts | 231° |
| 2026-05-07 00:24 | 54.82577 | -99.87129 | 40009 ft | 526 kts | 231° |
| 2026-05-07 00:25 | 54.77728 | -99.96654 | 40010 ft | 527 kts | 231° |
| 2026-05-07 00:25 | 54.73656 | -100.04625 | 40009 ft | 528 kts | 231° |
| 2026-05-07 00:26 | 54.67994 | -100.15663 | 40005 ft | 527 kts | 231° |
| 2026-05-07 00:26 | 54.63913 | -100.23590 | 40007 ft | 526 kts | 231° |
| 2026-05-07 00:27 | 54.59092 | -100.32922 | 40006 ft | 524 kts | 231° |
| 2026-05-07 00:27 | 54.54209 | -100.42335 | 40006 ft | 522 kts | 231° |
| 2026-05-07 00:28 | 54.49396 | -100.51579 | 40009 ft | 521 kts | 231° |
| 2026-05-07 00:28 | 54.44559 | -100.60832 | 40010 ft | 520 kts | 231° |
| 2026-05-07 00:29 | 54.39714 | -100.70067 | 40008 ft | 520 kts | 231° |
| 2026-05-07 00:30 | 54.30011 | -100.88456 | 40016 ft | 520 kts | 231° |
| 2026-05-07 00:30 | 54.25143 | -100.97631 | 40017 ft | 521 kts | 231° |
| 2026-05-07 00:31 | 54.20261 | -101.06793 | 40022 ft | 522 kts | 231° |
| 2026-05-07 00:31 | 54.15373 | -101.15935 | 40031 ft | 522 kts | 231° |
| 2026-05-07 00:32 | 54.10466 | -101.25076 | 40043 ft | 523 kts | 231° |
| 2026-05-07 00:32 | 54.05547 | -101.34206 | 40049 ft | 523 kts | 231° |
| 2026-05-07 00:33 | 54.00622 | -101.43313 | 40050 ft | 523 kts | 231° |
| 2026-05-07 00:33 | 53.95688 | -101.52400 | 40050 ft | 523 kts | 231° |
| 2026-05-07 00:34 | 53.90750 | -101.61462 | 40046 ft | 523 kts | 231° |
| 2026-05-07 00:34 | 53.85804 | -101.70506 | 40044 ft | 523 kts | 231° |
| 2026-05-07 00:35 | 53.80853 | -101.79523 | 40048 ft | 522 kts | 231° |
| 2026-05-07 00:35 | 53.75898 | -101.88514 | 40043 ft | 522 kts | 231° |
| 2026-05-07 00:36 | 53.70943 | -101.97472 | 40041 ft | 522 kts | 231° |
| 2026-05-07 00:36 | 53.65979 | -102.06415 | 40043 ft | 522 kts | 231° |
| 2026-05-07 00:37 | 53.61014 | -102.15325 | 40037 ft | 522 kts | 231° |
| 2026-05-07 00:37 | 53.56073 | -102.24160 | 40038 ft | 522 kts | 231° |
| 2026-05-07 00:38 | 53.51057 | -102.33097 | 40032 ft | 522 kts | 231° |
| 2026-05-07 00:38 | 53.46106 | -102.41885 | 40029 ft | 522 kts | 231° |
| 2026-05-07 00:39 | 53.41112 | -102.50717 | 40038 ft | 522 kts | 230° |
| 2026-05-07 00:39 | 53.36109 | -102.59532 | 40027 ft | 522 kts | 231° |
| 2026-05-07 00:40 | 53.31100 | -102.68326 | 40027 ft | 522 kts | 230° |
| 2026-05-07 00:40 | 53.26086 | -102.77098 | 40018 ft | 522 kts | 230° |
| 2026-05-07 00:41 | 53.21064 | -102.85850 | 40015 ft | 522 kts | 230° |
| 2026-05-07 00:41 | 53.16045 | -102.94567 | 40015 ft | 522 kts | 230° |
| 2026-05-07 00:42 | 53.11009 | -103.03282 | 40022 ft | 521 kts | 230° |
| 2026-05-07 00:42 | 53.05979 | -103.11954 | 40023 ft | 521 kts | 230° |
| 2026-05-07 00:43 | 53.00933 | -103.20623 | 40027 ft | 521 kts | 230° |
| 2026-05-07 00:43 | 52.95890 | -103.29256 | 40033 ft | 521 kts | 230° |
| 2026-05-07 00:44 | 52.90837 | -103.37875 | 40032 ft | 521 kts | 230° |
| 2026-05-07 00:44 | 52.85785 | -103.46462 | 40036 ft | 521 kts | 230° |
| 2026-05-07 00:45 | 52.80716 | -103.55048 | 40036 ft | 521 kts | 230° |
| 2026-05-07 00:45 | 52.75642 | -103.63612 | 40039 ft | 521 kts | 230° |
| 2026-05-07 00:46 | 52.70564 | -103.72151 | 40035 ft | 522 kts | 230° |
| 2026-05-07 00:46 | 52.65471 | -103.80684 | 40039 ft | 522 kts | 230° |
| 2026-05-07 00:47 | 52.60379 | -103.89187 | 40043 ft | 522 kts | 230° |
| 2026-05-07 00:47 | 52.55273 | -103.97684 | 40044 ft | 522 kts | 230° |
| 2026-05-07 00:48 | 52.50164 | -104.06155 | 40045 ft | 522 kts | 230° |
| 2026-05-07 00:48 | 52.45084 | -104.14548 | 40042 ft | 522 kts | 230° |
| 2026-05-07 00:49 | 52.39967 | -104.22973 | 40045 ft | 521 kts | 230° |
| 2026-05-07 00:49 | 52.34850 | -104.31370 | 40047 ft | 521 kts | 230° |
| 2026-05-07 00:50 | 52.29733 | -104.39737 | 40049 ft | 520 kts | 230° |
| 2026-05-07 00:50 | 52.24610 | -104.48084 | 40042 ft | 520 kts | 230° |
| 2026-05-07 00:51 | 52.19502 | -104.56379 | 40044 ft | 519 kts | 230° |
| 2026-05-07 00:51 | 52.14372 | -104.64680 | 40043 ft | 519 kts | 230° |
| 2026-05-07 00:52 | 52.09244 | -104.72950 | 40040 ft | 519 kts | 230° |
| 2026-05-07 00:52 | 52.04144 | -104.81146 | 40039 ft | 518 kts | 230° |
| 2026-05-07 00:53 | 51.99028 | -104.89340 | 40036 ft | 518 kts | 230° |
| 2026-05-07 00:53 | 51.93883 | -104.97549 | 40032 ft | 517 kts | 230° |
| 2026-05-07 00:54 | 51.88750 | -105.05713 | 40030 ft | 517 kts | 230° |
| 2026-05-07 00:54 | 51.83625 | -105.13860 | 40024 ft | 516 kts | 230° |
| 2026-05-07 00:55 | 51.78578 | -105.21993 | 40029 ft | 516 kts | 231° |
| 2026-05-07 00:55 | 51.73505 | -105.30175 | 40027 ft | 515 kts | 231° |
| 2026-05-07 00:56 | 51.68424 | -105.38323 | 40023 ft | 515 kts | 230° |
| 2026-05-07 00:56 | 51.63338 | -105.46436 | 40023 ft | 515 kts | 230° |
| 2026-05-07 00:57 | 51.58245 | -105.54528 | 40028 ft | 514 kts | 230° |
| 2026-05-07 00:57 | 51.53151 | -105.62596 | 40039 ft | 514 kts | 230° |
| 2026-05-07 00:58 | 51.48053 | -105.70643 | 40012 ft | 514 kts | 230° |
| 2026-05-07 00:58 | 51.42942 | -105.78685 | 40028 ft | 514 kts | 230° |
| 2026-05-07 00:59 | 51.35281 | -105.90691 | 40024 ft | 514 kts | 230° |
| 2026-05-07 01:00 | 51.30191 | -105.98635 | 40023 ft | 513 kts | 230° |
| 2026-05-07 01:00 | 51.25080 | -106.06585 | 40022 ft | 513 kts | 230° |
| 2026-05-07 01:01 | 51.19967 | -106.14513 | 40022 ft | 512 kts | 230° |
| 2026-05-07 01:01 | 51.14857 | -106.22409 | 40028 ft | 512 kts | 230° |
| 2026-05-07 01:02 | 51.09751 | -106.30274 | 40019 ft | 512 kts | 230° |
| 2026-05-07 01:02 | 51.04621 | -106.38150 | 40024 ft | 511 kts | 230° |
| 2026-05-07 01:03 | 50.99504 | -106.45980 | 40022 ft | 511 kts | 230° |
| 2026-05-07 01:03 | 50.94383 | -106.53793 | 40020 ft | 511 kts | 230° |
| 2026-05-07 01:04 | 50.89257 | -106.61587 | 40022 ft | 510 kts | 230° |
| 2026-05-07 01:04 | 50.84128 | -106.69361 | 40020 ft | 510 kts | 230° |
| 2026-05-07 01:05 | 50.78998 | -106.77112 | 40022 ft | 510 kts | 230° |
| 2026-05-07 01:05 | 50.73858 | -106.84854 | 40026 ft | 511 kts | 230° |
| 2026-05-07 01:06 | 50.68710 | -106.92584 | 40018 ft | 511 kts | 230° |
| 2026-05-07 01:06 | 50.63588 | -107.00247 | 40015 ft | 511 kts | 230° |
| 2026-05-07 01:07 | 50.58428 | -107.07943 | 40007 ft | 511 kts | 230° |
| 2026-05-07 01:07 | 50.53261 | -107.15627 | 40003 ft | 511 kts | 230° |
| 2026-05-07 01:08 | 50.48097 | -107.23281 | 39995 ft | 510 kts | 230° |
| 2026-05-07 01:08 | 50.42931 | -107.30914 | 39980 ft | 510 kts | 230° |
| 2026-05-07 01:09 | 50.37758 | -107.38534 | 39947 ft | 510 kts | 230° |
| 2026-05-07 01:09 | 50.32585 | -107.46130 | 39928 ft | 509 kts | 230° |
| 2026-05-07 01:10 | 50.27416 | -107.53697 | 39912 ft | 509 kts | 230° |
| 2026-05-07 01:10 | 50.22244 | -107.61243 | 39903 ft | 508 kts | 230° |
| 2026-05-07 01:11 | 50.17070 | -107.68769 | 39910 ft | 508 kts | 230° |
| 2026-05-07 01:11 | 50.11905 | -107.76259 | 39920 ft | 507 kts | 230° |
| 2026-05-07 01:12 | 50.06741 | -107.83726 | 39932 ft | 506 kts | 230° |
| 2026-05-07 01:12 | 50.01577 | -107.91168 | 39951 ft | 506 kts | 229° |
| 2026-05-07 01:13 | 49.97285 | -107.97338 | 39958 ft | 505 kts | 229° |
| 2026-05-07 01:13 | 49.92123 | -108.04736 | 39954 ft | 505 kts | 229° |
| 2026-05-07 01:14 | 49.87009 | -108.12043 | 39942 ft | 504 kts | 229° |
| 2026-05-07 01:14 | 49.81851 | -108.19390 | 39942 ft | 503 kts | 229° |
| 2026-05-07 01:15 | 49.76699 | -108.26706 | 39941 ft | 502 kts | 229° |
| 2026-05-07 01:15 | 49.71588 | -108.33944 | 39936 ft | 501 kts | 229° |
| 2026-05-07 01:16 | 49.66450 | -108.41198 | 39928 ft | 500 kts | 229° |
| 2026-05-07 01:16 | 49.61318 | -108.48421 | 39923 ft | 499 kts | 229° |
| 2026-05-07 01:17 | 49.56195 | -108.55610 | 39924 ft | 498 kts | 229° |
| 2026-05-07 01:17 | 49.51077 | -108.62772 | 39921 ft | 497 kts | 229° |
| 2026-05-07 01:18 | 49.45961 | -108.69910 | 39919 ft | 496 kts | 228° |
| 2026-05-07 01:18 | 49.40847 | -108.77022 | 39914 ft | 496 kts | 228° |
| 2026-05-07 01:19 | 49.35732 | -108.84116 | 39914 ft | 495 kts | 228° |
| 2026-05-07 01:19 | 49.30615 | -108.91194 | 39910 ft | 495 kts | 228° |
| 2026-05-07 01:20 | 49.25494 | -108.98255 | 39907 ft | 495 kts | 228° |
| 2026-05-07 01:20 | 49.20368 | -109.05302 | 39906 ft | 495 kts | 228° |
| 2026-05-07 01:21 | 49.15238 | -109.12334 | 39906 ft | 496 kts | 228° |
| 2026-05-07 01:21 | 49.10096 | -109.19363 | 39901 ft | 496 kts | 228° |
| 2026-05-07 01:22 | 49.04951 | -109.26375 | 39900 ft | 496 kts | 228° |
| 2026-05-07 01:22 | 48.99801 | -109.33371 | 39898 ft | 496 kts | 227° |
| 2026-05-07 01:23 | 48.94651 | -109.40348 | 39893 ft | 495 kts | 227° |
| 2026-05-07 01:23 | 48.89504 | -109.47302 | 39891 ft | 495 kts | 227° |
| 2026-05-07 01:24 | 48.84357 | -109.54236 | 39883 ft | 494 kts | 227° |
| 2026-05-07 01:24 | 48.79215 | -109.61144 | 39868 ft | 493 kts | 227° |
| 2026-05-07 01:25 | 48.74075 | -109.68027 | 39851 ft | 492 kts | 227° |
| 2026-05-07 01:25 | 48.68950 | -109.74872 | 39843 ft | 491 kts | 227° |
| 2026-05-07 01:26 | 48.63825 | -109.81696 | 39831 ft | 490 kts | 227° |
| 2026-05-07 01:26 | 48.58712 | -109.88485 | 39826 ft | 489 kts | 227° |
| 2026-05-07 01:27 | 48.53634 | -109.95208 | 39846 ft | 488 kts | 227° |
| 2026-05-07 01:27 | 48.48542 | -110.01968 | 39843 ft | 487 kts | 228° |
| 2026-05-07 01:28 | 48.43644 | -110.08973 | 39843 ft | 485 kts | 230° |
| 2026-05-07 01:28 | 48.38809 | -110.16064 | 39850 ft | 485 kts | 230° |
| 2026-05-07 01:29 | 48.33955 | -110.23105 | 39856 ft | 485 kts | 230° |
| 2026-05-07 01:29 | 48.29067 | -110.30113 | 39845 ft | 486 kts | 230° |
| 2026-05-07 01:30 | 48.24167 | -110.37096 | 39842 ft | 486 kts | 230° |
| 2026-05-07 01:30 | 48.19256 | -110.44073 | 39837 ft | 486 kts | 230° |
| 2026-05-07 01:31 | 48.14342 | -110.51040 | 39835 ft | 487 kts | 230° |
| 2026-05-07 01:31 | 48.09421 | -110.57999 | 39837 ft | 487 kts | 230° |
| 2026-05-07 01:32 | 48.04489 | -110.64954 | 39834 ft | 487 kts | 230° |
| 2026-05-07 01:32 | 47.99556 | -110.71892 | 39835 ft | 487 kts | 230° |
| 2026-05-07 01:33 | 47.94615 | -110.78822 | 39836 ft | 487 kts | 230° |
| 2026-05-07 01:33 | 47.89670 | -110.85737 | 39842 ft | 488 kts | 230° |
| 2026-05-07 01:34 | 47.84718 | -110.92645 | 39838 ft | 488 kts | 230° |
| 2026-05-07 01:34 | 47.79788 | -110.99503 | 39849 ft | 488 kts | 230° |
| 2026-05-07 01:35 | 47.74817 | -111.06398 | 39849 ft | 489 kts | 230° |
| 2026-05-07 01:35 | 47.69843 | -111.13279 | 39858 ft | 489 kts | 230° |
| 2026-05-07 01:36 | 47.64858 | -111.20155 | 39858 ft | 489 kts | 230° |
| 2026-05-07 01:36 | 47.59871 | -111.27017 | 39860 ft | 489 kts | 230° |
| 2026-05-07 01:37 | 47.54880 | -111.33865 | 39856 ft | 489 kts | 230° |
| 2026-05-07 01:37 | 47.49885 | -111.40699 | 39861 ft | 489 kts | 230° |
| 2026-05-07 01:38 | 47.44885 | -111.47523 | 39859 ft | 489 kts | 230° |
| 2026-05-07 01:38 | 47.39878 | -111.54339 | 39849 ft | 490 kts | 230° |
| 2026-05-07 01:39 | 47.34867 | -111.61139 | 39856 ft | 490 kts | 230° |
| 2026-05-07 01:39 | 47.29863 | -111.67913 | 39856 ft | 490 kts | 230° |
| 2026-05-07 01:40 | 47.24823 | -111.74716 | 39874 ft | 490 kts | 230° |
| 2026-05-07 01:40 | 47.19794 | -111.81489 | 39891 ft | 490 kts | 230° |
| 2026-05-07 01:41 | 47.14746 | -111.88266 | 39890 ft | 492 kts | 230° |
| 2026-05-07 01:41 | 47.09691 | -111.95034 | 39908 ft | 492 kts | 230° |
| 2026-05-07 01:42 | 47.04631 | -112.01792 | 39918 ft | 492 kts | 230° |
| 2026-05-07 01:42 | 46.99564 | -112.08541 | 39929 ft | 492 kts | 230° |
| 2026-05-07 01:43 | 46.94498 | -112.15269 | 39937 ft | 492 kts | 229° |
| 2026-05-07 01:43 | 46.89429 | -112.21984 | 39933 ft | 491 kts | 229° |
| 2026-05-07 01:44 | 46.84365 | -112.28674 | 39936 ft | 490 kts | 229° |
| 2026-05-07 01:44 | 46.79307 | -112.35344 | 39935 ft | 490 kts | 229° |
| 2026-05-07 01:45 | 46.74240 | -112.42004 | 39942 ft | 490 kts | 229° |
| 2026-05-07 01:45 | 46.69200 | -112.48610 | 39960 ft | 491 kts | 229° |
| 2026-05-07 01:46 | 46.64087 | -112.55295 | 39971 ft | 490 kts | 229° |
| 2026-05-07 01:46 | 46.59023 | -112.61897 | 39971 ft | 490 kts | 229° |
| 2026-05-07 01:47 | 46.53932 | -112.68518 | 39969 ft | 490 kts | 229° |
| 2026-05-07 01:47 | 46.48849 | -112.75112 | 39965 ft | 490 kts | 229° |
| 2026-05-07 01:48 | 46.43802 | -112.81640 | 39967 ft | 489 kts | 229° |
| 2026-05-07 01:48 | 46.38720 | -112.88199 | 39955 ft | 489 kts | 229° |
| 2026-05-07 01:49 | 46.33641 | -112.94734 | 39961 ft | 489 kts | 229° |
| 2026-05-07 01:49 | 46.28557 | -113.01264 | 39982 ft | 489 kts | 229° |
| 2026-05-07 01:50 | 46.23465 | -113.07783 | 39984 ft | 489 kts | 229° |
| 2026-05-07 01:50 | 46.18362 | -113.14304 | 39979 ft | 491 kts | 229° |
| 2026-05-07 01:51 | 46.13247 | -113.20819 | 39977 ft | 491 kts | 229° |
| 2026-05-07 01:51 | 46.08125 | -113.27324 | 39971 ft | 491 kts | 229° |
| 2026-05-07 01:52 | 46.02987 | -113.33833 | 39976 ft | 491 kts | 228° |
| 2026-05-07 01:52 | 45.97852 | -113.40324 | 39977 ft | 492 kts | 228° |
| 2026-05-07 01:53 | 45.92718 | -113.46797 | 39977 ft | 491 kts | 228° |
| 2026-05-07 01:53 | 45.87585 | -113.53252 | 39973 ft | 490 kts | 228° |
| 2026-05-07 01:54 | 45.82447 | -113.59695 | 39966 ft | 490 kts | 228° |
| 2026-05-07 01:54 | 45.77318 | -113.66110 | 39958 ft | 489 kts | 228° |
| 2026-05-07 01:55 | 45.72226 | -113.72465 | 39956 ft | 489 kts | 228° |
| 2026-05-07 01:55 | 45.67045 | -113.78917 | 39958 ft | 491 kts | 228° |
| 2026-05-07 01:56 | 45.61879 | -113.85328 | 39947 ft | 492 kts | 228° |
| 2026-05-07 01:56 | 45.56739 | -113.91687 | 39939 ft | 493 kts | 228° |
| 2026-05-07 01:57 | 45.51552 | -113.98096 | 39950 ft | 493 kts | 228° |
| 2026-05-07 01:57 | 45.46566 | -114.04763 | 39940 ft | 490 kts | 232° |
| 2026-05-07 01:58 | 45.41769 | -114.11666 | 39937 ft | 491 kts | 232° |
| 2026-05-07 01:58 | 45.36965 | -114.18580 | 39945 ft | 492 kts | 232° |
| 2026-05-07 01:59 | 45.32129 | -114.25465 | 39926 ft | 492 kts | 232° |
| 2026-05-07 01:59 | 45.27282 | -114.32322 | 39923 ft | 492 kts | 232° |
| 2026-05-07 02:00 | 45.22434 | -114.39158 | 39935 ft | 491 kts | 232° |
| 2026-05-07 02:00 | 45.17595 | -114.45968 | 39937 ft | 491 kts | 232° |
| 2026-05-07 02:01 | 45.13565 | -114.51624 | 39933 ft | 490 kts | 232° |
| 2026-05-07 02:01 | 45.08715 | -114.58417 | 39907 ft | 491 kts | 232° |
| 2026-05-07 02:02 | 45.03870 | -114.65178 | 39920 ft | 492 kts | 232° |
| 2026-05-07 02:02 | 44.98982 | -114.72010 | 39945 ft | 496 kts | 232° |
| 2026-05-07 02:03 | 44.94051 | -114.78869 | 39958 ft | 499 kts | 231° |
| 2026-05-07 02:03 | 44.89093 | -114.85744 | 39935 ft | 498 kts | 231° |
| 2026-05-07 02:04 | 44.84188 | -114.92509 | 39958 ft | 490 kts | 231° |
| 2026-05-07 02:04 | 44.79323 | -114.99220 | 39970 ft | 489 kts | 231° |
| 2026-05-07 02:05 | 44.74459 | -115.05917 | 39990 ft | 489 kts | 231° |
| 2026-05-07 02:05 | 44.69586 | -115.12614 | 39999 ft | 491 kts | 231° |
| 2026-05-07 02:06 | 44.64690 | -115.19322 | 40000 ft | 492 kts | 231° |
| 2026-05-07 02:06 | 44.59799 | -115.25991 | 40024 ft | 491 kts | 231° |
| 2026-05-07 02:07 | 44.54886 | -115.32700 | 40024 ft | 494 kts | 231° |
| 2026-05-07 02:07 | 44.47448 | -115.42805 | 40036 ft | 498 kts | 231° |
| 2026-05-07 02:08 | 44.42460 | -115.49554 | 40046 ft | 499 kts | 230° |
| 2026-05-07 02:08 | 44.37463 | -115.56301 | 40045 ft | 500 kts | 230° |
| 2026-05-07 02:09 | 44.32456 | -115.63049 | 40046 ft | 500 kts | 230° |
| 2026-05-07 02:09 | 44.27453 | -115.69774 | 40035 ft | 499 kts | 230° |
| 2026-05-07 02:10 | 44.22442 | -115.76487 | 40021 ft | 498 kts | 230° |
| 2026-05-07 02:10 | 44.17446 | -115.83173 | 40037 ft | 498 kts | 230° |
| 2026-05-07 02:11 | 44.12481 | -115.89798 | 40028 ft | 498 kts | 230° |
| 2026-05-07 02:11 | 44.07466 | -115.96472 | 40012 ft | 499 kts | 230° |
| 2026-05-07 02:12 | 44.02439 | -116.03149 | 39993 ft | 501 kts | 230° |
| 2026-05-07 02:12 | 43.97390 | -116.09832 | 39999 ft | 502 kts | 230° |
| 2026-05-07 02:13 | 43.92333 | -116.16508 | 40009 ft | 501 kts | 230° |
| 2026-05-07 02:13 | 43.87277 | -116.23172 | 39998 ft | 502 kts | 230° |
| 2026-05-07 02:14 | 43.82213 | -116.29828 | 39997 ft | 502 kts | 229° |
| 2026-05-07 02:14 | 43.77148 | -116.36470 | 39992 ft | 502 kts | 229° |
| 2026-05-07 02:15 | 43.72077 | -116.43103 | 39997 ft | 502 kts | 229° |
| 2026-05-07 02:15 | 43.67008 | -116.49717 | 40008 ft | 501 kts | 229° |
| 2026-05-07 02:16 | 43.61931 | -116.56327 | 40007 ft | 502 kts | 229° |
| 2026-05-07 02:16 | 43.56847 | -116.62928 | 39999 ft | 502 kts | 229° |
| 2026-05-07 02:17 | 43.51762 | -116.69514 | 39999 ft | 502 kts | 229° |
| 2026-05-07 02:17 | 43.46665 | -116.76101 | 39981 ft | 503 kts | 229° |
| 2026-05-07 02:18 | 43.41562 | -116.82677 | 39991 ft | 503 kts | 229° |
| 2026-05-07 02:18 | 43.36495 | -116.89193 | 39984 ft | 503 kts | 228° |
| 2026-05-07 02:19 | 43.31382 | -116.95752 | 40001 ft | 503 kts | 228° |
| 2026-05-07 02:19 | 43.26269 | -117.02296 | 40000 ft | 502 kts | 228° |
| 2026-05-07 02:20 | 43.21171 | -117.08804 | 40006 ft | 502 kts | 228° |
| 2026-05-07 02:20 | 43.16048 | -117.15328 | 40012 ft | 501 kts | 228° |
| 2026-05-07 02:21 | 43.10934 | -117.21825 | 40016 ft | 501 kts | 228° |
| 2026-05-07 02:21 | 43.05826 | -117.28300 | 40012 ft | 501 kts | 228° |
| 2026-05-07 02:22 | 43.00710 | -117.34769 | 40006 ft | 500 kts | 228° |
| 2026-05-07 02:22 | 42.95599 | -117.41215 | 40015 ft | 500 kts | 227° |
| 2026-05-07 02:23 | 42.90484 | -117.47652 | 40008 ft | 500 kts | 227° |
| 2026-05-07 02:23 | 42.85368 | -117.54076 | 40003 ft | 500 kts | 227° |
| 2026-05-07 02:24 | 42.80246 | -117.60490 | 40019 ft | 500 kts | 227° |
| 2026-05-07 02:24 | 42.75118 | -117.66897 | 40030 ft | 501 kts | 227° |
| 2026-05-07 02:25 | 42.69978 | -117.73302 | 40046 ft | 501 kts | 227° |
| 2026-05-07 02:25 | 42.64837 | -117.79691 | 40059 ft | 501 kts | 227° |
| 2026-05-07 02:26 | 42.59661 | -117.86018 | 40065 ft | 502 kts | 224° |
| 2026-05-07 02:26 | 42.53927 | -117.91416 | 40069 ft | 507 kts | 216° |
| 2026-05-07 02:27 | 42.47923 | -117.96446 | 40060 ft | 507 kts | 216° |
| 2026-05-07 02:27 | 42.41926 | -118.01474 | 40047 ft | 507 kts | 216° |
| 2026-05-07 02:28 | 42.35947 | -118.06532 | 40052 ft | 507 kts | 216° |
| 2026-05-07 02:28 | 42.29973 | -118.11597 | 40025 ft | 507 kts | 216° |
| 2026-05-07 02:29 | 42.23967 | -118.16678 | 40033 ft | 506 kts | 216° |
| 2026-05-07 02:29 | 42.18042 | -118.21675 | 40048 ft | 505 kts | 216° |
| 2026-05-07 02:30 | 42.12080 | -118.26690 | 40044 ft | 505 kts | 216° |
| 2026-05-07 02:30 | 42.06122 | -118.31692 | 40042 ft | 504 kts | 216° |
| 2026-05-07 02:31 | 42.00169 | -118.36678 | 40032 ft | 504 kts | 216° |
| 2026-05-07 02:31 | 41.94226 | -118.41657 | 40036 ft | 503 kts | 216° |
| 2026-05-07 02:32 | 41.88293 | -118.46622 | 40039 ft | 502 kts | 216° |
| 2026-05-07 02:32 | 41.82357 | -118.51560 | 40033 ft | 501 kts | 216° |
| 2026-05-07 02:33 | 41.76433 | -118.56472 | 40038 ft | 501 kts | 216° |
| 2026-05-07 02:33 | 41.70509 | -118.61373 | 40033 ft | 500 kts | 216° |
| 2026-05-07 02:34 | 41.64596 | -118.66258 | 40042 ft | 500 kts | 216° |
| 2026-05-07 02:34 | 41.58671 | -118.71143 | 40041 ft | 500 kts | 216° |
| 2026-05-07 02:35 | 41.52749 | -118.76005 | 40040 ft | 500 kts | 216° |
| 2026-05-07 02:35 | 41.46820 | -118.80870 | 40047 ft | 500 kts | 216° |
| 2026-05-07 02:36 | 41.41197 | -118.86210 | 40048 ft | 494 kts | 225° |
| 2026-05-07 02:36 | 41.36004 | -118.92106 | 40051 ft | 493 kts | 225° |
| 2026-05-07 02:37 | 41.30790 | -118.98043 | 40050 ft | 494 kts | 225° |
| 2026-05-07 02:37 | 41.25540 | -119.03940 | 40040 ft | 494 kts | 225° |
| 2026-05-07 02:38 | 41.20269 | -119.09807 | 40041 ft | 494 kts | 224° |
| 2026-05-07 02:38 | 41.14996 | -119.15656 | 40039 ft | 493 kts | 224° |
| 2026-05-07 02:39 | 41.09730 | -119.21488 | 40038 ft | 493 kts | 224° |
| 2026-05-07 02:39 | 41.04469 | -119.27304 | 40037 ft | 492 kts | 224° |
| 2026-05-07 02:40 | 40.99213 | -119.33104 | 40037 ft | 492 kts | 225° |
| 2026-05-07 02:40 | 40.93964 | -119.38884 | 40041 ft | 491 kts | 224° |
| 2026-05-07 02:41 | 40.88707 | -119.44659 | 40052 ft | 491 kts | 224° |
| 2026-05-07 02:41 | 40.83454 | -119.50418 | 40030 ft | 491 kts | 224° |
| 2026-05-07 02:42 | 40.78203 | -119.56162 | 40052 ft | 490 kts | 224° |
| 2026-05-07 02:42 | 40.72954 | -119.61893 | 40040 ft | 490 kts | 225° |
| 2026-05-07 02:43 | 40.67704 | -119.67612 | 40041 ft | 489 kts | 225° |
| 2026-05-07 02:43 | 40.62457 | -119.73316 | 40031 ft | 489 kts | 225° |
| 2026-05-07 02:44 | 40.57245 | -119.78969 | 40029 ft | 489 kts | 225° |
| 2026-05-07 02:44 | 40.52001 | -119.84646 | 40026 ft | 488 kts | 224° |
| 2026-05-07 02:45 | 40.46756 | -119.90311 | 40023 ft | 488 kts | 224° |
| 2026-05-07 02:45 | 40.41511 | -119.95965 | 40014 ft | 488 kts | 224° |
| 2026-05-07 02:46 | 40.36261 | -120.01613 | 40011 ft | 488 kts | 224° |
| 2026-05-07 02:46 | 40.31005 | -120.07256 | 40014 ft | 488 kts | 224° |
| 2026-05-07 02:47 | 40.25752 | -120.12883 | 40019 ft | 488 kts | 224° |
| 2026-05-07 02:47 | 40.20491 | -120.18507 | 40039 ft | 488 kts | 224° |
| 2026-05-07 02:48 | 40.15228 | -120.24122 | 40050 ft | 488 kts | 224° |
| 2026-05-07 02:48 | 40.09957 | -120.29732 | 40056 ft | 489 kts | 224° |
| 2026-05-07 02:49 | 40.04688 | -120.35330 | 40062 ft | 489 kts | 224° |
| 2026-05-07 02:49 | 40.00294 | -120.39990 | 40074 ft | 489 kts | 224° |
| 2026-05-07 02:50 | 39.94117 | -120.46526 | 40080 ft | 489 kts | 224° |
| 2026-05-07 02:50 | 39.88832 | -120.52106 | 40089 ft | 489 kts | 224° |
| 2026-05-07 02:51 | 39.84438 | -120.56736 | 40101 ft | 489 kts | 224° |
| 2026-05-07 02:51 | 39.79139 | -120.62309 | 40108 ft | 489 kts | 224° |
| 2026-05-07 02:52 | 39.73847 | -120.67864 | 40118 ft | 489 kts | 224° |
| 2026-05-07 02:52 | 39.68548 | -120.73416 | 40122 ft | 490 kts | 223° |
| 2026-05-07 02:53 | 39.63232 | -120.78972 | 40123 ft | 490 kts | 223° |
| 2026-05-07 02:53 | 39.57947 | -120.84482 | 40152 ft | 490 kts | 223° |
| 2026-05-07 02:54 | 39.52625 | -120.90018 | 40162 ft | 490 kts | 223° |
| 2026-05-07 02:54 | 39.47312 | -120.95539 | 40143 ft | 490 kts | 223° |
| 2026-05-07 02:55 | 39.41990 | -121.01048 | 40140 ft | 490 kts | 223° |
| 2026-05-07 02:55 | 39.36676 | -121.06542 | 40147 ft | 485 kts | 223° |
| 2026-05-07 02:56 | 39.31819 | -121.12345 | 40155 ft | 470 kts | 233° |
| 2026-05-07 02:56 | 39.27652 | -121.18808 | 40139 ft | 466 kts | 235° |
| 2026-05-07 02:57 | 39.23529 | -121.25250 | 40087 ft | 465 kts | 234° |
| 2026-05-07 02:57 | 39.19417 | -121.31591 | 40086 ft | 464 kts | 234° |
| 2026-05-07 02:58 | 39.15253 | -121.37960 | 40086 ft | 465 kts | 234° |
| 2026-05-07 02:58 | 39.11047 | -121.44371 | 40082 ft | 466 kts | 234° |
| 2026-05-07 02:59 | 39.06879 | -121.50711 | 40090 ft | 467 kts | 234° |
| 2026-05-07 02:59 | 39.02642 | -121.57144 | 40093 ft | 469 kts | 234° |
| 2026-05-07 03:00 | 38.98450 | -121.63497 | 40093 ft | 470 kts | 234° |
| 2026-05-07 03:00 | 38.94218 | -121.69899 | 40096 ft | 470 kts | 233° |
| 2026-05-07 03:01 | 38.89976 | -121.76301 | 40089 ft | 471 kts | 233° |
| 2026-05-07 03:01 | 38.85730 | -121.82698 | 40079 ft | 471 kts | 233° |
| 2026-05-07 03:02 | 38.83607 | -121.85892 | 39916 ft | 473 kts | 233° |
| 2026-05-07 03:02 | 38.81461 | -121.89119 | 39312 ft | 472 kts | 233° |
| 2026-05-07 03:02 | 38.79341 | -121.92296 | 38657 ft | 467 kts | 233° |
| 2026-05-07 03:02 | 38.77231 | -121.95459 | 37856 ft | 467 kts | 233° |
| 2026-05-07 03:03 | 38.75121 | -121.98619 | 37085 ft | 466 kts | 233° |
| 2026-05-07 03:03 | 38.73016 | -122.01768 | 36308 ft | 466 kts | 233° |
| 2026-05-07 03:03 | 38.70907 | -122.04921 | 35507 ft | 467 kts | 233° |
| 2026-05-07 03:03 | 38.68782 | -122.08096 | 34586 ft | 471 kts | 233° |
| 2026-05-07 03:04 | 38.66642 | -122.11291 | 33720 ft | 473 kts | 233° |
| 2026-05-07 03:04 | 38.64507 | -122.14469 | 33028 ft | 470 kts | 232° |
| 2026-05-07 03:04 | 38.62380 | -122.17633 | 32373 ft | 466 kts | 232° |
| 2026-05-07 03:04 | 38.60275 | -122.20763 | 31749 ft | 463 kts | 232° |
| 2026-05-07 03:05 | 38.58187 | -122.23864 | 31147 ft | 459 kts | 232° |
| 2026-05-07 03:05 | 38.56110 | -122.26945 | 30560 ft | 455 kts | 232° |
| 2026-05-07 03:05 | 38.54060 | -122.29984 | 29942 ft | 452 kts | 232° |
| 2026-05-07 03:05 | 38.52003 | -122.33029 | 29241 ft | 449 kts | 231° |
| 2026-05-07 03:06 | 38.49980 | -122.36017 | 28578 ft | 445 kts | 231° |
| 2026-05-07 03:06 | 38.47957 | -122.39006 | 27934 ft | 441 kts | 231° |
| 2026-05-07 03:06 | 38.45958 | -122.41962 | 27303 ft | 438 kts | 231° |
| 2026-05-07 03:06 | 38.43976 | -122.44899 | 26683 ft | 435 kts | 231° |
| 2026-05-07 03:07 | 38.42041 | -122.47783 | 26076 ft | 432 kts | 232° |
| 2026-05-07 03:07 | 38.40095 | -122.50686 | 25471 ft | 430 kts | 231° |
| 2026-05-07 03:07 | 38.38152 | -122.53579 | 24883 ft | 428 kts | 231° |
| 2026-05-07 03:07 | 38.36218 | -122.56449 | 24278 ft | 427 kts | 231° |
| 2026-05-07 03:08 | 38.34283 | -122.59315 | 23649 ft | 426 kts | 231° |
| 2026-05-07 03:08 | 38.32352 | -122.62169 | 22960 ft | 425 kts | 231° |
| 2026-05-07 03:08 | 38.30429 | -122.65007 | 22347 ft | 422 kts | 231° |
| 2026-05-07 03:08 | 38.28519 | -122.67826 | 21759 ft | 418 kts | 231° |
| 2026-05-07 03:09 | 38.26653 | -122.70584 | 21208 ft | 415 kts | 231° |
| 2026-05-07 03:09 | 38.24684 | -122.73196 | 20635 ft | 406 kts | 218° |
| 2026-05-07 03:09 | 38.22211 | -122.74887 | 20120 ft | 404 kts | 198° |
| 2026-05-07 03:09 | 38.19467 | -122.75545 | 19630 ft | 401 kts | 183° |
| 2026-05-07 03:10 | 38.16707 | -122.75258 | 19141 ft | 396 kts | 167° |
| 2026-05-07 03:10 | 38.14031 | -122.74478 | 18628 ft | 394 kts | 166° |
| 2026-05-07 03:10 | 38.11365 | -122.73651 | 18069 ft | 394 kts | 166° |
| 2026-05-07 03:10 | 38.08710 | -122.72829 | 17536 ft | 391 kts | 166° |
| 2026-05-07 03:11 | 38.06072 | -122.72029 | 16968 ft | 390 kts | 166° |
| 2026-05-07 03:11 | 38.03432 | -122.71247 | 16401 ft | 389 kts | 166° |
| 2026-05-07 03:11 | 38.00799 | -122.70478 | 15885 ft | 387 kts | 167° |
| 2026-05-07 03:11 | 37.98187 | -122.69718 | 15391 ft | 384 kts | 167° |
| 2026-05-07 03:12 | 37.95591 | -122.68967 | 14893 ft | 382 kts | 167° |
| 2026-05-07 03:12 | 37.93010 | -122.68223 | 14415 ft | 379 kts | 167° |
| 2026-05-07 03:12 | 37.90514 | -122.67414 | 14213 ft | 360 kts | 159° |
| 2026-05-07 03:12 | 37.88386 | -122.65846 | 13806 ft | 353 kts | 140° |
| 2026-05-07 03:13 | 37.86557 | -122.63805 | 13364 ft | 350 kts | 139° |
| 2026-05-07 03:13 | 37.84713 | -122.61802 | 12899 ft | 348 kts | 140° |
| 2026-05-07 03:13 | 37.82866 | -122.59838 | 12457 ft | 346 kts | 140° |
| 2026-05-07 03:13 | 37.81025 | -122.57888 | 12005 ft | 344 kts | 140° |
| 2026-05-07 03:14 | 37.79195 | -122.55951 | 11575 ft | 343 kts | 140° |
| 2026-05-07 03:14 | 37.77383 | -122.54031 | 11343 ft | 334 kts | 140° |
| 2026-05-07 03:14 | 37.73949 | -122.50408 | 11089 ft | 312 kts | 140° |
| 2026-05-07 03:15 | 37.72290 | -122.48679 | 11025 ft | 299 kts | 143° |
| 2026-05-07 03:15 | 37.70622 | -122.47051 | 11007 ft | 306 kts | 140° |
| 2026-05-07 03:15 | 37.69043 | -122.45325 | 11001 ft | 302 kts | 138° |
| 2026-05-07 03:15 | 37.67472 | -122.43580 | 10975 ft | 291 kts | 139° |
| 2026-05-07 03:16 | 37.65974 | -122.41950 | 10748 ft | 286 kts | 139° |
| 2026-05-07 03:16 | 37.64451 | -122.40320 | 10519 ft | 282 kts | 139° |
| 2026-05-07 03:16 | 37.62985 | -122.38764 | 10296 ft | 278 kts | 139° |
| 2026-05-07 03:16 | 37.61489 | -122.37181 | 10050 ft | 275 kts | 141° |
| 2026-05-07 03:17 | 37.60001 | -122.35701 | 9781 ft | 271 kts | 140° |
| 2026-05-07 03:17 | 37.58530 | -122.34211 | 9448 ft | 273 kts | 140° |
| 2026-05-07 03:17 | 37.57067 | -122.32726 | 9099 ft | 274 kts | 140° |
| 2026-05-07 03:17 | 37.55701 | -122.31332 | 8796 ft | 275 kts | 140° |
| 2026-05-07 03:18 | 37.54216 | -122.29816 | 8454 ft | 275 kts | 140° |
| 2026-05-07 03:18 | 37.52724 | -122.28294 | 8028 ft | 278 kts | 140° |
| 2026-05-07 03:18 | 37.51393 | -122.26514 | 7549 ft | 277 kts | 124° |
| 2026-05-07 03:18 | 37.50354 | -122.24491 | 7128 ft | 280 kts | 120° |
| 2026-05-07 03:19 | 37.49386 | -122.22368 | 6664 ft | 275 kts | 118° |
| 2026-05-07 03:19 | 37.48487 | -122.20289 | 6206 ft | 267 kts | 117° |
| 2026-05-07 03:19 | 37.47611 | -122.18255 | 5734 ft | 263 kts | 117° |
| 2026-05-07 03:19 | 37.46737 | -122.16228 | 5293 ft | 269 kts | 117° |
| 2026-05-07 03:20 | 37.45885 | -122.14106 | 4874 ft | 266 kts | 107° |
| 2026-05-07 03:20 | 37.45713 | -122.11830 | 4479 ft | 262 kts | 78° |
| 2026-05-07 03:20 | 37.46419 | -122.09832 | 4071 ft | 243 kts | 49° |
| 2026-05-07 03:20 | 37.47770 | -122.08658 | 3702 ft | 235 kts | 17° |
| 2026-05-07 03:21 | 37.49337 | -122.08575 | 3305 ft | 225 kts | 344° |
| 2026-05-07 03:21 | 37.50645 | -122.09598 | 3019 ft | 223 kts | 309° |
| 2026-05-07 03:21 | 37.51317 | -122.11270 | 3010 ft | 210 kts | 292° |
| 2026-05-07 03:21 | 37.51887 | -122.12961 | 3009 ft | 210 kts | 296° |
| 2026-05-07 03:22 | 37.52535 | -122.14612 | 3045 ft | 210 kts | 298° |
| 2026-05-07 03:22 | 37.53192 | -122.16200 | 2975 ft | 194 kts | 299° |
| 2026-05-07 03:22 | 37.53793 | -122.17633 | 2974 ft | 175 kts | 300° |
| 2026-05-07 03:22 | 37.54328 | -122.18907 | 2961 ft | 158 kts | 300° |
| 2026-05-07 03:23 | 37.54841 | -122.20133 | 2777 ft | 157 kts | 299° |
| 2026-05-07 03:23 | 37.55342 | -122.21327 | 2548 ft | 153 kts | 299° |
| 2026-05-07 03:23 | 37.55823 | -122.22478 | 2361 ft | 141 kts | 299° |
| 2026-05-07 03:23 | 37.56249 | -122.23496 | 2179 ft | 124 kts | 298° |
| 2026-05-07 03:24 | 37.56644 | -122.24440 | 2083 ft | 125 kts | 299° |
| 2026-05-07 03:24 | 37.57052 | -122.25419 | 1883 ft | 125 kts | 299° |
| 2026-05-07 03:24 | 37.57456 | -122.26382 | 1709 ft | 123 kts | 299° |
| 2026-05-07 03:24 | 37.57852 | -122.27330 | 1526 ft | 121 kts | 298° |
| 2026-05-07 03:25 | 37.58245 | -122.28268 | 1375 ft | 121 kts | 298° |
| 2026-05-07 03:25 | 37.58640 | -122.29210 | 1198 ft | 121 kts | 298° |
| 2026-05-07 03:25 | 37.59030 | -122.30153 | 1052 ft | 121 kts | 298° |
| 2026-05-07 03:25 | 37.59427 | -122.31086 | 943 ft | 121 kts | 298° |
| 2026-05-07 03:26 | 37.59808 | -122.32029 | 792 ft | 120 kts | 298° |
| 2026-05-07 03:26 | 37.60199 | -122.32936 | 652 ft | 116 kts | 298° |
| 2026-05-07 03:26 | 37.60576 | -122.33827 | 451 ft | 116 kts | 296° |
| 2026-05-07 03:26 | 37.60939 | -122.34696 | 268 ft | 110 kts | 295° |
| 2026-05-07 03:27 | 37.61280 | -122.35525 | 125 ft | 105 kts | 296° |
| 2026-05-07 03:27 | 37.61599 | -122.36293 | 27 ft | 89 kts | 297° |
| 2026-05-07 03:27 | 37.61821 | -122.36833 | 26 ft | 44 kts | 299° |
| 2026-05-07 03:27 | 37.61911 | -122.37044 | 25 ft | 26 kts | 298° |
| 2026-05-07 03:28 | 37.61998 | -122.37248 | 25 ft | 26 kts | 297° |
| 2026-05-07 03:28 | 37.62084 | -122.37453 | 20 ft | 26 kts | 298° |
| 2026-05-07 03:28 | 37.62169 | -122.37659 | 25 ft | 26 kts | 293° |
| 2026-05-07 03:28 | 37.62208 | -122.37885 | 27 ft | 26 kts | 277° |
| 2026-05-07 03:29 | 37.62223 | -122.38034 | 28 ft | 6 kts | 276° |
| 2026-05-07 03:29 | 37.62225 | -122.38065 | 28 ft | 0 kts | 275° |
| 2026-05-07 03:29 | 37.62226 | -122.38070 | 28 ft | 5 kts | 275° |
| 2026-05-07 03:30 | 37.62230 | -122.38138 | 27 ft | 8 kts | 271° |
| 2026-05-07 03:30 | 37.62228 | -122.38223 | 30 ft | 11 kts | 268° |
| 2026-05-07 03:30 | 37.62225 | -122.38320 | 25 ft | 11 kts | 268° |
| 2026-05-07 03:30 | 37.62222 | -122.38419 | 24 ft | 11 kts | 266° |
| 2026-05-07 03:31 | 37.62216 | -122.38518 | 23 ft | 11 kts | 266° |
| 2026-05-07 03:31 | 37.62220 | -122.38617 | 21 ft | 11 kts | 284° |
| 2026-05-07 03:31 | 37.62254 | -122.38711 | 19 ft | 12 kts | 298° |
| 2026-05-07 03:31 | 37.62294 | -122.38806 | 19 ft | 12 kts | 298° |
| 2026-05-07 03:32 | 37.62331 | -122.38903 | 18 ft | 12 kts | 284° |
| 2026-05-07 03:32 | 37.62313 | -122.38964 | 19 ft | 8 kts | 223° |
| 2026-05-07 03:32 | 37.62268 | -122.39001 | 18 ft | 8 kts | 212° |
| 2026-05-07 03:32 | 37.62239 | -122.39057 | 18 ft | 8 kts | 246° |
| 2026-05-07 03:33 | 37.62209 | -122.39113 | 21 ft | 8 kts | 220° |
| 2026-05-07 03:33 | 37.62159 | -122.39151 | 19 ft | 12 kts | 208° |
| 2026-05-07 03:33 | 37.62084 | -122.39201 | 19 ft | 12 kts | 207° |
| 2026-05-07 03:33 | 37.62024 | -122.39241 | 23 ft | 5 kts | 206° |
| 2026-05-07 03:34 | 37.61978 | -122.39230 | 20 ft | 8 kts | 141° |
| 2026-05-07 03:34 | 37.61948 | -122.39174 | 20 ft | 8 kts | 120° |
| 2026-05-07 03:34 | 37.61921 | -122.39113 | 21 ft | 8 kts | 119° |
| 2026-05-07 03:34 | 37.61897 | -122.39080 | 20 ft | 2 kts | 160° |
| 2026-05-07 03:35 | 37.61866 | -122.39087 | 22 ft | 5 kts | 197° |
| 2026-05-07 03:35 | 37.61834 | -122.39106 | 23 ft | 0 kts | 206° |